<?xml version="1.0" encoding="UTF-8" standalone="no" ?>
<gpx xmlns="http://www.topografix.com/GPX/1/1" xmlns:xsi="http://www.w3.org/2001/XMLSchema-instance" xsi:schemaLocation="http://www.topografix.com/GPX/1/1 http://www.topografix.com/GPX/1/1/gpx.xsd" version="1.1" creator="VisuGPX - https://www.visugpx.com">
  <metadata>
    <name>RANDO DE Camiran</name>
    <desc><![CDATA[Rando de Camiran après-midi le 1 10 2017]]></desc>
  </metadata>
  <trk>
    <name><![CDATA[Tracé 15 oct. 2017 13:47:24]]></name>
    <trkseg>
      <trkpt lat="44.6282" lon="-0.06688">
        <ele>-11.887206666667</ele>
        <time>2017-10-15T11:47:24Z</time>
      </trkpt>
      <trkpt lat="44.62829" lon="-0.06687">
        <ele>-11.886853333333</ele>
        <time>2017-10-15T11:47:39Z</time>
      </trkpt>
      <trkpt lat="44.62837" lon="-0.06684">
        <ele>-11.88652</ele>
        <time>2017-10-15T11:47:59Z</time>
      </trkpt>
      <trkpt lat="44.62838" lon="-0.06689">
        <ele>-12.1865</ele>
        <time>2017-10-15T11:48:44Z</time>
      </trkpt>
      <trkpt lat="44.62838" lon="-0.06689">
        <ele>-12.1865</ele>
        <time>2017-10-15T11:48:45Z</time>
      </trkpt>
      <trkpt lat="44.62818" lon="-0.06673">
        <ele>-12.0873</ele>
        <time>2017-10-15T11:50:19Z</time>
      </trkpt>
      <trkpt lat="44.62809" lon="-0.06672">
        <ele>-12.28764</ele>
        <time>2017-10-15T11:50:40Z</time>
      </trkpt>
      <trkpt lat="44.62802" lon="-0.06669">
        <ele>-12.387933333333</ele>
        <time>2017-10-15T11:50:48Z</time>
      </trkpt>
      <trkpt lat="44.62793" lon="-0.0667">
        <ele>-12.48828</ele>
        <time>2017-10-15T11:50:57Z</time>
      </trkpt>
      <trkpt lat="44.62785" lon="-0.06665">
        <ele>-12.588593333333</ele>
        <time>2017-10-15T11:51:07Z</time>
      </trkpt>
      <trkpt lat="44.62777" lon="-0.06666">
        <ele>-12.788933333333</ele>
        <time>2017-10-15T11:51:17Z</time>
      </trkpt>
      <trkpt lat="44.62768" lon="-0.06668">
        <ele>-12.889266666667</ele>
        <time>2017-10-15T11:51:24Z</time>
      </trkpt>
      <trkpt lat="44.62767" lon="-0.06678">
        <ele>-13.089313333333</ele>
        <time>2017-10-15T11:51:29Z</time>
      </trkpt>
      <trkpt lat="44.62766" lon="-0.06689">
        <ele>-13.189373333333</ele>
        <time>2017-10-15T11:51:35Z</time>
      </trkpt>
      <trkpt lat="44.62766" lon="-0.06701">
        <ele>-13.389373333333</ele>
        <time>2017-10-15T11:51:42Z</time>
      </trkpt>
      <trkpt lat="44.62762" lon="-0.06712">
        <ele>-13.989513333333</ele>
        <time>2017-10-15T11:51:52Z</time>
      </trkpt>
      <trkpt lat="44.62759" lon="-0.06724">
        <ele>-14.78966</ele>
        <time>2017-10-15T11:52:02Z</time>
      </trkpt>
      <trkpt lat="44.62753" lon="-0.06734">
        <ele>-14.789866666667</ele>
        <time>2017-10-15T11:52:11Z</time>
      </trkpt>
      <trkpt lat="44.6275" lon="-0.06745">
        <ele>-15.490013333333</ele>
        <time>2017-10-15T11:52:23Z</time>
      </trkpt>
      <trkpt lat="44.62753" lon="-0.06755">
        <ele>-15.989873333333</ele>
        <time>2017-10-15T11:52:31Z</time>
      </trkpt>
      <trkpt lat="44.62758" lon="-0.06765">
        <ele>-16.489693333333</ele>
        <time>2017-10-15T11:52:37Z</time>
      </trkpt>
      <trkpt lat="44.62762" lon="-0.06776">
        <ele>-16.68952</ele>
        <time>2017-10-15T11:52:43Z</time>
      </trkpt>
      <trkpt lat="44.62756" lon="-0.06768">
        <ele>-17.089773333333</ele>
        <time>2017-10-15T11:52:59Z</time>
      </trkpt>
      <trkpt lat="44.62754" lon="-0.06756">
        <ele>-17.889846666667</ele>
        <time>2017-10-15T11:53:08Z</time>
      </trkpt>
      <trkpt lat="44.62749" lon="-0.06747">
        <ele>-18.290033333333</ele>
        <time>2017-10-15T11:53:14Z</time>
      </trkpt>
      <trkpt lat="44.62742" lon="-0.0674">
        <ele>-19.490313333333</ele>
        <time>2017-10-15T11:53:23Z</time>
      </trkpt>
      <trkpt lat="44.62734" lon="-0.06738">
        <ele>-20.890626666667</ele>
        <time>2017-10-15T11:53:33Z</time>
      </trkpt>
      <trkpt lat="44.62726" lon="-0.06743">
        <ele>-21.490953333333</ele>
        <time>2017-10-15T11:53:40Z</time>
      </trkpt>
      <trkpt lat="44.62719" lon="-0.0675">
        <ele>-22.49124</ele>
        <time>2017-10-15T11:53:47Z</time>
      </trkpt>
      <trkpt lat="44.62716" lon="-0.06759">
        <ele>-23.79138</ele>
        <time>2017-10-15T11:53:53Z</time>
      </trkpt>
      <trkpt lat="44.6271" lon="-0.06768">
        <ele>-26.091586666667</ele>
        <time>2017-10-15T11:53:59Z</time>
      </trkpt>
      <trkpt lat="44.62702" lon="-0.06769">
        <ele>-27.891933333333</ele>
        <time>2017-10-15T11:54:12Z</time>
      </trkpt>
      <trkpt lat="44.62694" lon="-0.06766">
        <ele>-27.392253333333</ele>
        <time>2017-10-15T11:54:28Z</time>
      </trkpt>
      <trkpt lat="44.62688" lon="-0.06758">
        <ele>-28.192493333333</ele>
        <time>2017-10-15T11:54:37Z</time>
      </trkpt>
      <trkpt lat="44.62679" lon="-0.06757">
        <ele>-28.79284</ele>
        <time>2017-10-15T11:54:44Z</time>
      </trkpt>
      <trkpt lat="44.62671" lon="-0.06757">
        <ele>-28.99316</ele>
        <time>2017-10-15T11:54:51Z</time>
      </trkpt>
      <trkpt lat="44.62663" lon="-0.06753">
        <ele>-29.093486666667</ele>
        <time>2017-10-15T11:55:00Z</time>
      </trkpt>
      <trkpt lat="44.62656" lon="-0.06746">
        <ele>-28.99376</ele>
        <time>2017-10-15T11:55:07Z</time>
      </trkpt>
      <trkpt lat="44.62649" lon="-0.06753">
        <ele>-29.694026666667</ele>
        <time>2017-10-15T11:55:16Z</time>
      </trkpt>
      <trkpt lat="44.62645" lon="-0.06764">
        <ele>-30.2942</ele>
        <time>2017-10-15T11:55:24Z</time>
      </trkpt>
      <trkpt lat="44.62646" lon="-0.06775">
        <ele>-31.494146666667</ele>
        <time>2017-10-15T11:55:28Z</time>
      </trkpt>
      <trkpt lat="44.62642" lon="-0.06785">
        <ele>-33.394306666667</ele>
        <time>2017-10-15T11:55:36Z</time>
      </trkpt>
      <trkpt lat="44.62635" lon="-0.06789">
        <ele>-34.09462</ele>
        <time>2017-10-15T11:55:43Z</time>
      </trkpt>
      <trkpt lat="44.62629" lon="-0.06794">
        <ele>-34.49486</ele>
        <time>2017-10-15T11:55:49Z</time>
      </trkpt>
      <trkpt lat="44.62621" lon="-0.06799">
        <ele>-35.395173333333</ele>
        <time>2017-10-15T11:55:55Z</time>
      </trkpt>
      <trkpt lat="44.62615" lon="-0.06806">
        <ele>-36.0954</ele>
        <time>2017-10-15T11:56:03Z</time>
      </trkpt>
      <trkpt lat="44.62614" lon="-0.06817">
        <ele>-37.295453333333</ele>
        <time>2017-10-15T11:56:09Z</time>
      </trkpt>
      <trkpt lat="44.62607" lon="-0.06825">
        <ele>-35.995713333333</ele>
        <time>2017-10-15T11:56:16Z</time>
      </trkpt>
      <trkpt lat="44.626" lon="-0.06832">
        <ele>-34.19602</ele>
        <time>2017-10-15T11:56:23Z</time>
      </trkpt>
      <trkpt lat="44.62595" lon="-0.06842">
        <ele>-35.296193333333</ele>
        <time>2017-10-15T11:56:31Z</time>
      </trkpt>
      <trkpt lat="44.62589" lon="-0.06849">
        <ele>-37.696446666667</ele>
        <time>2017-10-15T11:56:40Z</time>
      </trkpt>
      <trkpt lat="44.62584" lon="-0.06857">
        <ele>-37.89666</ele>
        <time>2017-10-15T11:56:46Z</time>
      </trkpt>
      <trkpt lat="44.62578" lon="-0.06867">
        <ele>-37.896873333333</ele>
        <time>2017-10-15T11:56:53Z</time>
      </trkpt>
      <trkpt lat="44.62573" lon="-0.06875">
        <ele>-37.4971</ele>
        <time>2017-10-15T11:56:58Z</time>
      </trkpt>
      <trkpt lat="44.62567" lon="-0.06884">
        <ele>-37.197326666667</ele>
        <time>2017-10-15T11:57:05Z</time>
      </trkpt>
      <trkpt lat="44.62563" lon="-0.06894">
        <ele>-38.59748</ele>
        <time>2017-10-15T11:57:12Z</time>
      </trkpt>
      <trkpt lat="44.62562" lon="-0.06906">
        <ele>-38.99754</ele>
        <time>2017-10-15T11:57:19Z</time>
      </trkpt>
      <trkpt lat="44.6256" lon="-0.06918">
        <ele>-40.397586666667</ele>
        <time>2017-10-15T11:57:26Z</time>
      </trkpt>
      <trkpt lat="44.62554" lon="-0.06926">
        <ele>-35.29784</ele>
        <time>2017-10-15T11:57:36Z</time>
      </trkpt>
      <trkpt lat="44.62549" lon="-0.06935">
        <ele>-34.198053333333</ele>
        <time>2017-10-15T11:57:44Z</time>
      </trkpt>
      <trkpt lat="44.62543" lon="-0.06945">
        <ele>-35.398266666667</ele>
        <time>2017-10-15T11:57:50Z</time>
      </trkpt>
      <trkpt lat="44.62539" lon="-0.06955">
        <ele>-34.698426666667</ele>
        <time>2017-10-15T11:57:56Z</time>
      </trkpt>
      <trkpt lat="44.62535" lon="-0.06965">
        <ele>-31.19862</ele>
        <time>2017-10-15T11:58:04Z</time>
      </trkpt>
      <trkpt lat="44.62529" lon="-0.06974">
        <ele>-29.998826666667</ele>
        <time>2017-10-15T11:58:11Z</time>
      </trkpt>
      <trkpt lat="44.62524" lon="-0.06981">
        <ele>-32.299053333333</ele>
        <time>2017-10-15T11:58:19Z</time>
      </trkpt>
      <trkpt lat="44.62518" lon="-0.06989">
        <ele>-29.49928</ele>
        <time>2017-10-15T11:58:25Z</time>
      </trkpt>
      <trkpt lat="44.62518" lon="-0.07001">
        <ele>-31.099273333333</ele>
        <time>2017-10-15T11:58:31Z</time>
      </trkpt>
      <trkpt lat="44.62518" lon="-0.07013">
        <ele>-33.299286666667</ele>
        <time>2017-10-15T11:58:37Z</time>
      </trkpt>
      <trkpt lat="44.62522" lon="-0.07023">
        <ele>-33.599133333333</ele>
        <time>2017-10-15T11:58:42Z</time>
      </trkpt>
      <trkpt lat="44.62521" lon="-0.07034">
        <ele>-35.09916</ele>
        <time>2017-10-15T11:58:48Z</time>
      </trkpt>
      <trkpt lat="44.6252" lon="-0.07045">
        <ele>-38.399213333333</ele>
        <time>2017-10-15T11:58:54Z</time>
      </trkpt>
      <trkpt lat="44.62517" lon="-0.07056">
        <ele>-42.49934</ele>
        <time>2017-10-15T11:59:01Z</time>
      </trkpt>
      <trkpt lat="44.62514" lon="-0.07067">
        <ele>-39.499433333333</ele>
        <time>2017-10-15T11:59:08Z</time>
      </trkpt>
      <trkpt lat="44.62507" lon="-0.07073">
        <ele>-37.399733333333</ele>
        <time>2017-10-15T11:59:16Z</time>
      </trkpt>
      <trkpt lat="44.62501" lon="-0.07081">
        <ele>-35.599953333333</ele>
        <time>2017-10-15T11:59:25Z</time>
      </trkpt>
      <trkpt lat="44.62495" lon="-0.07088">
        <ele>-35.4002</ele>
        <time>2017-10-15T11:59:32Z</time>
      </trkpt>
      <trkpt lat="44.62487" lon="-0.07092">
        <ele>-32.50054</ele>
        <time>2017-10-15T11:59:39Z</time>
      </trkpt>
      <trkpt lat="44.62478" lon="-0.07092">
        <ele>-27.400886666667</ele>
        <time>2017-10-15T11:59:46Z</time>
      </trkpt>
      <trkpt lat="44.62469" lon="-0.0709">
        <ele>-25.801233333333</ele>
        <time>2017-10-15T11:59:50Z</time>
      </trkpt>
      <trkpt lat="44.62461" lon="-0.07093">
        <ele>-22.501546666667</ele>
        <time>2017-10-15T11:59:59Z</time>
      </trkpt>
      <trkpt lat="44.62454" lon="-0.07097">
        <ele>-19.90186</ele>
        <time>2017-10-15T12:00:06Z</time>
      </trkpt>
      <trkpt lat="44.62445" lon="-0.07102">
        <ele>-19.802186666667</ele>
        <time>2017-10-15T12:00:14Z</time>
      </trkpt>
      <trkpt lat="44.6244" lon="-0.07111">
        <ele>-16.40242</ele>
        <time>2017-10-15T12:00:20Z</time>
      </trkpt>
      <trkpt lat="44.62434" lon="-0.07119">
        <ele>-14.702646666667</ele>
        <time>2017-10-15T12:00:27Z</time>
      </trkpt>
      <trkpt lat="44.62428" lon="-0.07129">
        <ele>-15.902873333333</ele>
        <time>2017-10-15T12:00:34Z</time>
      </trkpt>
      <trkpt lat="44.62423" lon="-0.07135">
        <ele>-15.6031</ele>
        <time>2017-10-15T12:00:39Z</time>
      </trkpt>
      <trkpt lat="44.62418" lon="-0.07145">
        <ele>-19.30328</ele>
        <time>2017-10-15T12:00:44Z</time>
      </trkpt>
      <trkpt lat="44.62413" lon="-0.07154">
        <ele>-22.20348</ele>
        <time>2017-10-15T12:00:53Z</time>
      </trkpt>
      <trkpt lat="44.62407" lon="-0.07161">
        <ele>-23.00374</ele>
        <time>2017-10-15T12:01:00Z</time>
      </trkpt>
      <trkpt lat="44.62399" lon="-0.07166">
        <ele>-26.504026666667</ele>
        <time>2017-10-15T12:01:08Z</time>
      </trkpt>
      <trkpt lat="44.62395" lon="-0.07177">
        <ele>-29.104193333333</ele>
        <time>2017-10-15T12:01:14Z</time>
      </trkpt>
      <trkpt lat="44.6239" lon="-0.07186">
        <ele>-32.304393333333</ele>
        <time>2017-10-15T12:01:22Z</time>
      </trkpt>
      <trkpt lat="44.62385" lon="-0.07195">
        <ele>-35.104613333333</ele>
        <time>2017-10-15T12:01:28Z</time>
      </trkpt>
      <trkpt lat="44.6238" lon="-0.07204">
        <ele>-40.004813333333</ele>
        <time>2017-10-15T12:01:33Z</time>
      </trkpt>
      <trkpt lat="44.62372" lon="-0.07207">
        <ele>-35.205126666667</ele>
        <time>2017-10-15T12:01:39Z</time>
      </trkpt>
      <trkpt lat="44.62365" lon="-0.07213">
        <ele>-33.80542</ele>
        <time>2017-10-15T12:01:45Z</time>
      </trkpt>
      <trkpt lat="44.62363" lon="-0.07224">
        <ele>-27.605473333333</ele>
        <time>2017-10-15T12:01:55Z</time>
      </trkpt>
      <trkpt lat="44.62355" lon="-0.07223">
        <ele>-13.1058</ele>
        <time>2017-10-15T12:02:00Z</time>
      </trkpt>
      <trkpt lat="44.6235" lon="-0.07231">
        <ele>-12.405993333333</ele>
        <time>2017-10-15T12:02:04Z</time>
      </trkpt>
      <trkpt lat="44.62335" lon="-0.07233">
        <ele>-16.006593333333</ele>
        <time>2017-10-15T12:02:09Z</time>
      </trkpt>
      <trkpt lat="44.62333" lon="-0.07245">
        <ele>-24.706666666667</ele>
        <time>2017-10-15T12:02:15Z</time>
      </trkpt>
      <trkpt lat="44.62327" lon="-0.07253">
        <ele>-26.306926666667</ele>
        <time>2017-10-15T12:02:24Z</time>
      </trkpt>
      <trkpt lat="44.6232" lon="-0.07261">
        <ele>-28.207186666667</ele>
        <time>2017-10-15T12:02:31Z</time>
      </trkpt>
      <trkpt lat="44.62315" lon="-0.07267">
        <ele>-28.30742</ele>
        <time>2017-10-15T12:02:37Z</time>
      </trkpt>
      <trkpt lat="44.6231" lon="-0.07277">
        <ele>-32.90762</ele>
        <time>2017-10-15T12:02:44Z</time>
      </trkpt>
      <trkpt lat="44.62302" lon="-0.07281">
        <ele>-26.307913333333</ele>
        <time>2017-10-15T12:02:51Z</time>
      </trkpt>
      <trkpt lat="44.62295" lon="-0.07288">
        <ele>-25.908206666667</ele>
        <time>2017-10-15T12:02:59Z</time>
      </trkpt>
      <trkpt lat="44.62289" lon="-0.07295">
        <ele>-26.508453333333</ele>
        <time>2017-10-15T12:03:07Z</time>
      </trkpt>
      <trkpt lat="44.62282" lon="-0.073">
        <ele>-27.408733333333</ele>
        <time>2017-10-15T12:03:13Z</time>
      </trkpt>
      <trkpt lat="44.62276" lon="-0.07309">
        <ele>-26.808966666667</ele>
        <time>2017-10-15T12:03:19Z</time>
      </trkpt>
      <trkpt lat="44.62274" lon="-0.07321">
        <ele>-29.009053333333</ele>
        <time>2017-10-15T12:03:29Z</time>
      </trkpt>
      <trkpt lat="44.62267" lon="-0.07327">
        <ele>-32.209333333333</ele>
        <time>2017-10-15T12:03:35Z</time>
      </trkpt>
      <trkpt lat="44.62262" lon="-0.07337">
        <ele>-28.209533333333</ele>
        <time>2017-10-15T12:03:45Z</time>
      </trkpt>
      <trkpt lat="44.62258" lon="-0.07346">
        <ele>-29.8097</ele>
        <time>2017-10-15T12:03:51Z</time>
      </trkpt>
      <trkpt lat="44.62255" lon="-0.07357">
        <ele>-28.90982</ele>
        <time>2017-10-15T12:03:58Z</time>
      </trkpt>
      <trkpt lat="44.62247" lon="-0.07363">
        <ele>-26.610126666667</ele>
        <time>2017-10-15T12:04:03Z</time>
      </trkpt>
      <trkpt lat="44.6224" lon="-0.0737">
        <ele>-28.310406666667</ele>
        <time>2017-10-15T12:04:11Z</time>
      </trkpt>
      <trkpt lat="44.62234" lon="-0.07378">
        <ele>-28.710633333333</ele>
        <time>2017-10-15T12:04:18Z</time>
      </trkpt>
      <trkpt lat="44.62227" lon="-0.07384">
        <ele>-29.41094</ele>
        <time>2017-10-15T12:04:26Z</time>
      </trkpt>
      <trkpt lat="44.62219" lon="-0.07387">
        <ele>-29.711253333333</ele>
        <time>2017-10-15T12:04:33Z</time>
      </trkpt>
      <trkpt lat="44.62211" lon="-0.0739">
        <ele>-22.011546666667</ele>
        <time>2017-10-15T12:04:39Z</time>
      </trkpt>
      <trkpt lat="44.62204" lon="-0.07397">
        <ele>-14.211833333333</ele>
        <time>2017-10-15T12:04:45Z</time>
      </trkpt>
      <trkpt lat="44.62203" lon="-0.07407">
        <ele>-19.81188</ele>
        <time>2017-10-15T12:04:49Z</time>
      </trkpt>
      <trkpt lat="44.62197" lon="-0.07415">
        <ele>-21.212106666667</ele>
        <time>2017-10-15T12:04:55Z</time>
      </trkpt>
      <trkpt lat="44.62192" lon="-0.07424">
        <ele>-23.812306666667</ele>
        <time>2017-10-15T12:05:00Z</time>
      </trkpt>
      <trkpt lat="44.6219" lon="-0.07436">
        <ele>-30.512406666667</ele>
        <time>2017-10-15T12:05:05Z</time>
      </trkpt>
      <trkpt lat="44.62188" lon="-0.07448">
        <ele>-40.6125</ele>
        <time>2017-10-15T12:05:10Z</time>
      </trkpt>
      <trkpt lat="44.62182" lon="-0.07457">
        <ele>-41.91272</ele>
        <time>2017-10-15T12:05:18Z</time>
      </trkpt>
      <trkpt lat="44.62174" lon="-0.07458">
        <ele>-38.41304</ele>
        <time>2017-10-15T12:05:25Z</time>
      </trkpt>
      <trkpt lat="44.62166" lon="-0.0746">
        <ele>-38.213353333333</ele>
        <time>2017-10-15T12:05:32Z</time>
      </trkpt>
      <trkpt lat="44.6216" lon="-0.07469">
        <ele>-38.913593333333</ele>
        <time>2017-10-15T12:05:40Z</time>
      </trkpt>
      <trkpt lat="44.62156" lon="-0.07478">
        <ele>-38.11376</ele>
        <time>2017-10-15T12:05:46Z</time>
      </trkpt>
      <trkpt lat="44.62151" lon="-0.07488">
        <ele>-36.91398</ele>
        <time>2017-10-15T12:05:52Z</time>
      </trkpt>
      <trkpt lat="44.62146" lon="-0.07498">
        <ele>-39.414166666667</ele>
        <time>2017-10-15T12:06:01Z</time>
      </trkpt>
      <trkpt lat="44.6214" lon="-0.07508">
        <ele>-39.214386666667</ele>
        <time>2017-10-15T12:06:08Z</time>
      </trkpt>
      <trkpt lat="44.62134" lon="-0.07517">
        <ele>-39.714626666667</ele>
        <time>2017-10-15T12:06:16Z</time>
      </trkpt>
      <trkpt lat="44.62129" lon="-0.07526">
        <ele>-40.81486</ele>
        <time>2017-10-15T12:06:22Z</time>
      </trkpt>
      <trkpt lat="44.62123" lon="-0.07533">
        <ele>-40.6151</ele>
        <time>2017-10-15T12:06:27Z</time>
      </trkpt>
      <trkpt lat="44.62116" lon="-0.07542">
        <ele>-38.415346666667</ele>
        <time>2017-10-15T12:06:34Z</time>
      </trkpt>
      <trkpt lat="44.62109" lon="-0.07549">
        <ele>-33.015626666667</ele>
        <time>2017-10-15T12:06:42Z</time>
      </trkpt>
      <trkpt lat="44.62106" lon="-0.07559">
        <ele>-29.215766666667</ele>
        <time>2017-10-15T12:06:50Z</time>
      </trkpt>
      <trkpt lat="44.62102" lon="-0.0757">
        <ele>-28.615906666667</ele>
        <time>2017-10-15T12:06:57Z</time>
      </trkpt>
      <trkpt lat="44.62098" lon="-0.07581">
        <ele>-28.81608</ele>
        <time>2017-10-15T12:07:05Z</time>
      </trkpt>
      <trkpt lat="44.62094" lon="-0.0759">
        <ele>-30.716246666667</ele>
        <time>2017-10-15T12:07:10Z</time>
      </trkpt>
      <trkpt lat="44.6209" lon="-0.07599">
        <ele>-25.61642</ele>
        <time>2017-10-15T12:07:17Z</time>
      </trkpt>
      <trkpt lat="44.62089" lon="-0.07612">
        <ele>-31.816453333333</ele>
        <time>2017-10-15T12:07:22Z</time>
      </trkpt>
      <trkpt lat="44.62081" lon="-0.07608">
        <ele>-45.416773333333</ele>
        <time>2017-10-15T12:07:47Z</time>
      </trkpt>
      <trkpt lat="44.62075" lon="-0.07601">
        <ele>-59.317006666667</ele>
        <time>2017-10-15T12:08:11Z</time>
      </trkpt>
      <trkpt lat="44.62067" lon="-0.07602">
        <ele>-55.217306666667</ele>
        <time>2017-10-15T12:08:18Z</time>
      </trkpt>
      <trkpt lat="44.62056" lon="-0.07607">
        <ele>-49.917753333333</ele>
        <time>2017-10-15T12:08:23Z</time>
      </trkpt>
      <trkpt lat="44.62049" lon="-0.07612">
        <ele>-46.21804</ele>
        <time>2017-10-15T12:08:29Z</time>
      </trkpt>
      <trkpt lat="44.6204" lon="-0.0761">
        <ele>-42.018393333333</ele>
        <time>2017-10-15T12:08:37Z</time>
      </trkpt>
      <trkpt lat="44.62032" lon="-0.07608">
        <ele>-37.718713333333</ele>
        <time>2017-10-15T12:08:43Z</time>
      </trkpt>
      <trkpt lat="44.62026" lon="-0.07602">
        <ele>-31.718966666667</ele>
        <time>2017-10-15T12:08:49Z</time>
      </trkpt>
      <trkpt lat="44.62019" lon="-0.07597">
        <ele>-28.619226666667</ele>
        <time>2017-10-15T12:08:53Z</time>
      </trkpt>
      <trkpt lat="44.62012" lon="-0.0759">
        <ele>-34.919513333333</ele>
        <time>2017-10-15T12:09:02Z</time>
      </trkpt>
      <trkpt lat="44.62007" lon="-0.07582">
        <ele>-32.719726666667</ele>
        <time>2017-10-15T12:09:08Z</time>
      </trkpt>
      <trkpt lat="44.61999" lon="-0.0758">
        <ele>-32.82006</ele>
        <time>2017-10-15T12:09:21Z</time>
      </trkpt>
      <trkpt lat="44.6199" lon="-0.07584">
        <ele>-39.120393333333</ele>
        <time>2017-10-15T12:09:35Z</time>
      </trkpt>
      <trkpt lat="44.61984" lon="-0.07592">
        <ele>-39.320633333333</ele>
        <time>2017-10-15T12:09:43Z</time>
      </trkpt>
      <trkpt lat="44.6198" lon="-0.07601">
        <ele>-43.5208</ele>
        <time>2017-10-15T12:09:50Z</time>
      </trkpt>
      <trkpt lat="44.61975" lon="-0.07611">
        <ele>-42.721013333333</ele>
        <time>2017-10-15T12:09:56Z</time>
      </trkpt>
      <trkpt lat="44.6197" lon="-0.07618">
        <ele>-44.821206666667</ele>
        <time>2017-10-15T12:10:03Z</time>
      </trkpt>
      <trkpt lat="44.61966" lon="-0.07629">
        <ele>-49.521366666667</ele>
        <time>2017-10-15T12:10:07Z</time>
      </trkpt>
      <trkpt lat="44.6196" lon="-0.07635">
        <ele>-50.821606666667</ele>
        <time>2017-10-15T12:10:13Z</time>
      </trkpt>
      <trkpt lat="44.61953" lon="-0.07639">
        <ele>-46.32188</ele>
        <time>2017-10-15T12:10:17Z</time>
      </trkpt>
      <trkpt lat="44.61945" lon="-0.07643">
        <ele>-40.822186666667</ele>
        <time>2017-10-15T12:10:22Z</time>
      </trkpt>
      <trkpt lat="44.61938" lon="-0.07645">
        <ele>-36.322493333333</ele>
        <time>2017-10-15T12:10:27Z</time>
      </trkpt>
      <trkpt lat="44.61931" lon="-0.07653">
        <ele>-33.622766666667</ele>
        <time>2017-10-15T12:10:34Z</time>
      </trkpt>
      <trkpt lat="44.61923" lon="-0.07659">
        <ele>-24.323073333333</ele>
        <time>2017-10-15T12:10:42Z</time>
      </trkpt>
      <trkpt lat="44.61916" lon="-0.07665">
        <ele>-22.423366666667</ele>
        <time>2017-10-15T12:10:48Z</time>
      </trkpt>
      <trkpt lat="44.61908" lon="-0.07671">
        <ele>-22.32368</ele>
        <time>2017-10-15T12:10:57Z</time>
      </trkpt>
      <trkpt lat="44.61909" lon="-0.07683">
        <ele>-26.22364</ele>
        <time>2017-10-15T12:11:03Z</time>
      </trkpt>
      <trkpt lat="44.61903" lon="-0.07691">
        <ele>-33.9239</ele>
        <time>2017-10-15T12:11:09Z</time>
      </trkpt>
      <trkpt lat="44.61899" lon="-0.07701">
        <ele>-37.02406</ele>
        <time>2017-10-15T12:11:15Z</time>
      </trkpt>
      <trkpt lat="44.61895" lon="-0.07711">
        <ele>-39.224186666667</ele>
        <time>2017-10-15T12:11:22Z</time>
      </trkpt>
      <trkpt lat="44.61895" lon="-0.07724">
        <ele>-44.8242</ele>
        <time>2017-10-15T12:11:27Z</time>
      </trkpt>
      <trkpt lat="44.61893" lon="-0.07735">
        <ele>-47.124273333333</ele>
        <time>2017-10-15T12:11:32Z</time>
      </trkpt>
      <trkpt lat="44.61891" lon="-0.07743">
        <ele>-52.224353333333</ele>
        <time>2017-10-15T12:11:36Z</time>
      </trkpt>
      <trkpt lat="44.61886" lon="-0.07751">
        <ele>-53.524573333333</ele>
        <time>2017-10-15T12:11:44Z</time>
      </trkpt>
      <trkpt lat="44.61878" lon="-0.07757">
        <ele>-46.824866666667</ele>
        <time>2017-10-15T12:11:53Z</time>
      </trkpt>
      <trkpt lat="44.61872" lon="-0.07765">
        <ele>-45.425106666667</ele>
        <time>2017-10-15T12:12:00Z</time>
      </trkpt>
      <trkpt lat="44.6187" lon="-0.07776">
        <ele>-43.02522</ele>
        <time>2017-10-15T12:12:07Z</time>
      </trkpt>
      <trkpt lat="44.61865" lon="-0.07787">
        <ele>-40.525413333333</ele>
        <time>2017-10-15T12:12:15Z</time>
      </trkpt>
      <trkpt lat="44.6186" lon="-0.07796">
        <ele>-39.425586666667</ele>
        <time>2017-10-15T12:12:21Z</time>
      </trkpt>
      <trkpt lat="44.61856" lon="-0.07807">
        <ele>-37.725746666667</ele>
        <time>2017-10-15T12:12:29Z</time>
      </trkpt>
      <trkpt lat="44.61852" lon="-0.07815">
        <ele>-38.125913333333</ele>
        <time>2017-10-15T12:12:36Z</time>
      </trkpt>
      <trkpt lat="44.61849" lon="-0.07825">
        <ele>-42.92606</ele>
        <time>2017-10-15T12:12:42Z</time>
      </trkpt>
      <trkpt lat="44.61846" lon="-0.07839">
        <ele>-52.02616</ele>
        <time>2017-10-15T12:12:47Z</time>
      </trkpt>
      <trkpt lat="44.61844" lon="-0.07851">
        <ele>-56.02626</ele>
        <time>2017-10-15T12:12:55Z</time>
      </trkpt>
      <trkpt lat="44.61838" lon="-0.0786">
        <ele>-55.326466666667</ele>
        <time>2017-10-15T12:13:04Z</time>
      </trkpt>
      <trkpt lat="44.61833" lon="-0.07868">
        <ele>-51.326693333333</ele>
        <time>2017-10-15T12:13:10Z</time>
      </trkpt>
      <trkpt lat="44.61825" lon="-0.07872">
        <ele>-44.227013333333</ele>
        <time>2017-10-15T12:13:16Z</time>
      </trkpt>
      <trkpt lat="44.61818" lon="-0.07879">
        <ele>-38.22728</ele>
        <time>2017-10-15T12:13:24Z</time>
      </trkpt>
      <trkpt lat="44.61811" lon="-0.07885">
        <ele>-31.92756</ele>
        <time>2017-10-15T12:13:30Z</time>
      </trkpt>
      <trkpt lat="44.61806" lon="-0.07895">
        <ele>-31.827773333333</ele>
        <time>2017-10-15T12:13:38Z</time>
      </trkpt>
      <trkpt lat="44.618" lon="-0.07903">
        <ele>-31.028006666667</ele>
        <time>2017-10-15T12:13:45Z</time>
      </trkpt>
      <trkpt lat="44.618" lon="-0.07917">
        <ele>-39.328</ele>
        <time>2017-10-15T12:13:49Z</time>
      </trkpt>
      <trkpt lat="44.61795" lon="-0.07927">
        <ele>-39.728193333333</ele>
        <time>2017-10-15T12:13:55Z</time>
      </trkpt>
      <trkpt lat="44.61791" lon="-0.07937">
        <ele>-38.828373333333</ele>
        <time>2017-10-15T12:14:03Z</time>
      </trkpt>
      <trkpt lat="44.61784" lon="-0.07945">
        <ele>-39.22864</ele>
        <time>2017-10-15T12:14:11Z</time>
      </trkpt>
      <trkpt lat="44.61777" lon="-0.07951">
        <ele>-38.428926666667</ele>
        <time>2017-10-15T12:14:19Z</time>
      </trkpt>
      <trkpt lat="44.61771" lon="-0.07959">
        <ele>-42.52918</ele>
        <time>2017-10-15T12:14:29Z</time>
      </trkpt>
      <trkpt lat="44.61767" lon="-0.07969">
        <ele>-45.02934</ele>
        <time>2017-10-15T12:14:37Z</time>
      </trkpt>
      <trkpt lat="44.61761" lon="-0.07979">
        <ele>-44.229553333333</ele>
        <time>2017-10-15T12:14:44Z</time>
      </trkpt>
      <trkpt lat="44.61754" lon="-0.07984">
        <ele>-42.929826666667</ele>
        <time>2017-10-15T12:14:54Z</time>
      </trkpt>
      <trkpt lat="44.61748" lon="-0.07991">
        <ele>-41.230066666667</ele>
        <time>2017-10-15T12:15:00Z</time>
      </trkpt>
      <trkpt lat="44.61742" lon="-0.07998">
        <ele>-41.23032</ele>
        <time>2017-10-15T12:15:05Z</time>
      </trkpt>
      <trkpt lat="44.61736" lon="-0.08007">
        <ele>-41.930553333333</ele>
        <time>2017-10-15T12:15:10Z</time>
      </trkpt>
      <trkpt lat="44.6173" lon="-0.08014">
        <ele>-40.93082</ele>
        <time>2017-10-15T12:15:16Z</time>
      </trkpt>
      <trkpt lat="44.61723" lon="-0.08019">
        <ele>-37.431086666667</ele>
        <time>2017-10-15T12:15:22Z</time>
      </trkpt>
      <trkpt lat="44.61715" lon="-0.08023">
        <ele>-32.831393333333</ele>
        <time>2017-10-15T12:15:28Z</time>
      </trkpt>
      <trkpt lat="44.61714" lon="-0.08035">
        <ele>-32.131426666667</ele>
        <time>2017-10-15T12:15:37Z</time>
      </trkpt>
      <trkpt lat="44.61708" lon="-0.08042">
        <ele>-31.63168</ele>
        <time>2017-10-15T12:15:45Z</time>
      </trkpt>
      <trkpt lat="44.61703" lon="-0.08048">
        <ele>-31.831893333333</ele>
        <time>2017-10-15T12:15:50Z</time>
      </trkpt>
      <trkpt lat="44.61699" lon="-0.08058">
        <ele>-36.732053333333</ele>
        <time>2017-10-15T12:15:55Z</time>
      </trkpt>
      <trkpt lat="44.61694" lon="-0.08067">
        <ele>-39.232246666667</ele>
        <time>2017-10-15T12:16:00Z</time>
      </trkpt>
      <trkpt lat="44.6169" lon="-0.08076">
        <ele>-42.73242</ele>
        <time>2017-10-15T12:16:06Z</time>
      </trkpt>
      <trkpt lat="44.61685" lon="-0.08085">
        <ele>-44.932613333333</ele>
        <time>2017-10-15T12:16:12Z</time>
      </trkpt>
      <trkpt lat="44.6168" lon="-0.08094">
        <ele>-42.2328</ele>
        <time>2017-10-15T12:16:18Z</time>
      </trkpt>
      <trkpt lat="44.61675" lon="-0.08103">
        <ele>-42.933013333333</ele>
        <time>2017-10-15T12:16:24Z</time>
      </trkpt>
      <trkpt lat="44.61669" lon="-0.08113">
        <ele>-41.733253333333</ele>
        <time>2017-10-15T12:16:31Z</time>
      </trkpt>
      <trkpt lat="44.61662" lon="-0.08119">
        <ele>-38.433526666667</ele>
        <time>2017-10-15T12:16:38Z</time>
      </trkpt>
      <trkpt lat="44.61655" lon="-0.08126">
        <ele>-34.233806666667</ele>
        <time>2017-10-15T12:16:47Z</time>
      </trkpt>
      <trkpt lat="44.61649" lon="-0.08133">
        <ele>-30.834033333333</ele>
        <time>2017-10-15T12:16:55Z</time>
      </trkpt>
      <trkpt lat="44.61644" lon="-0.08142">
        <ele>-34.534253333333</ele>
        <time>2017-10-15T12:17:00Z</time>
      </trkpt>
      <trkpt lat="44.61643" lon="-0.08153">
        <ele>-37.034266666667</ele>
        <time>2017-10-15T12:17:06Z</time>
      </trkpt>
      <trkpt lat="44.61642" lon="-0.08165">
        <ele>-43.734306666667</ele>
        <time>2017-10-15T12:17:13Z</time>
      </trkpt>
      <trkpt lat="44.61641" lon="-0.08178">
        <ele>-47.734346666667</ele>
        <time>2017-10-15T12:17:21Z</time>
      </trkpt>
      <trkpt lat="44.61647" lon="-0.08185">
        <ele>-50.134126666667</ele>
        <time>2017-10-15T12:17:25Z</time>
      </trkpt>
      <trkpt lat="44.61655" lon="-0.08182">
        <ele>-41.333793333333</ele>
        <time>2017-10-15T12:17:47Z</time>
      </trkpt>
      <trkpt lat="44.61664" lon="-0.08185">
        <ele>-36.53346</ele>
        <time>2017-10-15T12:17:55Z</time>
      </trkpt>
      <trkpt lat="44.61672" lon="-0.0819">
        <ele>-33.733126666667</ele>
        <time>2017-10-15T12:18:02Z</time>
      </trkpt>
      <trkpt lat="44.61679" lon="-0.08193">
        <ele>-26.932826666667</ele>
        <time>2017-10-15T12:18:11Z</time>
      </trkpt>
      <trkpt lat="44.61688" lon="-0.08193">
        <ele>-28.3325</ele>
        <time>2017-10-15T12:18:19Z</time>
      </trkpt>
      <trkpt lat="44.61696" lon="-0.08195">
        <ele>-30.53218</ele>
        <time>2017-10-15T12:18:26Z</time>
      </trkpt>
      <trkpt lat="44.61704" lon="-0.08199">
        <ele>-33.731853333333</ele>
        <time>2017-10-15T12:18:32Z</time>
      </trkpt>
      <trkpt lat="44.61712" lon="-0.082">
        <ele>-36.031526666667</ele>
        <time>2017-10-15T12:18:38Z</time>
      </trkpt>
      <trkpt lat="44.6172" lon="-0.082">
        <ele>-39.13122</ele>
        <time>2017-10-15T12:18:44Z</time>
      </trkpt>
      <trkpt lat="44.61727" lon="-0.08197">
        <ele>-40.630913333333</ele>
        <time>2017-10-15T12:18:51Z</time>
      </trkpt>
      <trkpt lat="44.61735" lon="-0.08191">
        <ele>-43.130613333333</ele>
        <time>2017-10-15T12:18:59Z</time>
      </trkpt>
      <trkpt lat="44.61742" lon="-0.0819">
        <ele>-42.930333333333</ele>
        <time>2017-10-15T12:19:04Z</time>
      </trkpt>
      <trkpt lat="44.6175" lon="-0.08192">
        <ele>-40.83002</ele>
        <time>2017-10-15T12:19:09Z</time>
      </trkpt>
      <trkpt lat="44.61758" lon="-0.08193">
        <ele>-40.229673333333</ele>
        <time>2017-10-15T12:19:15Z</time>
      </trkpt>
      <trkpt lat="44.61765" lon="-0.08187">
        <ele>-38.429386666667</ele>
        <time>2017-10-15T12:19:22Z</time>
      </trkpt>
      <trkpt lat="44.61773" lon="-0.08181">
        <ele>-27.929073333333</ele>
        <time>2017-10-15T12:19:39Z</time>
      </trkpt>
      <trkpt lat="44.61782" lon="-0.0818">
        <ele>-26.828726666667</ele>
        <time>2017-10-15T12:19:46Z</time>
      </trkpt>
      <trkpt lat="44.61786" lon="-0.0819">
        <ele>-25.528566666667</ele>
        <time>2017-10-15T12:20:59Z</time>
      </trkpt>
      <trkpt lat="44.61793" lon="-0.08197">
        <ele>-31.828286666667</ele>
        <time>2017-10-15T12:21:15Z</time>
      </trkpt>
      <trkpt lat="44.61801" lon="-0.08196">
        <ele>-27.427946666667</ele>
        <time>2017-10-15T12:21:25Z</time>
      </trkpt>
      <trkpt lat="44.61811" lon="-0.08199">
        <ele>-26.42756</ele>
        <time>2017-10-15T12:21:29Z</time>
      </trkpt>
      <trkpt lat="44.61819" lon="-0.08204">
        <ele>-26.82726</ele>
        <time>2017-10-15T12:21:35Z</time>
      </trkpt>
      <trkpt lat="44.61827" lon="-0.08209">
        <ele>-25.32694</ele>
        <time>2017-10-15T12:21:40Z</time>
      </trkpt>
      <trkpt lat="44.61835" lon="-0.0821">
        <ele>-28.526593333333</ele>
        <time>2017-10-15T12:21:44Z</time>
      </trkpt>
      <trkpt lat="44.61842" lon="-0.08213">
        <ele>-30.126306666667</ele>
        <time>2017-10-15T12:21:49Z</time>
      </trkpt>
      <trkpt lat="44.61851" lon="-0.08216">
        <ele>-30.225966666667</ele>
        <time>2017-10-15T12:21:54Z</time>
      </trkpt>
      <trkpt lat="44.61861" lon="-0.08219">
        <ele>-34.625573333333</ele>
        <time>2017-10-15T12:21:59Z</time>
      </trkpt>
      <trkpt lat="44.61869" lon="-0.0822">
        <ele>-35.42526</ele>
        <time>2017-10-15T12:22:04Z</time>
      </trkpt>
      <trkpt lat="44.61877" lon="-0.0822">
        <ele>-35.12492</ele>
        <time>2017-10-15T12:22:12Z</time>
      </trkpt>
      <trkpt lat="44.61886" lon="-0.08219">
        <ele>-34.224573333333</ele>
        <time>2017-10-15T12:22:21Z</time>
      </trkpt>
      <trkpt lat="44.61894" lon="-0.08222">
        <ele>-33.224233333333</ele>
        <time>2017-10-15T12:22:31Z</time>
      </trkpt>
      <trkpt lat="44.61902" lon="-0.08227">
        <ele>-30.023926666667</ele>
        <time>2017-10-15T12:22:37Z</time>
      </trkpt>
      <trkpt lat="44.61909" lon="-0.08229">
        <ele>-27.323633333333</ele>
        <time>2017-10-15T12:22:42Z</time>
      </trkpt>
      <trkpt lat="44.61916" lon="-0.08221">
        <ele>-26.62338</ele>
        <time>2017-10-15T12:23:36Z</time>
      </trkpt>
      <trkpt lat="44.6192" lon="-0.0821">
        <ele>-32.823193333333</ele>
        <time>2017-10-15T12:24:04Z</time>
      </trkpt>
      <trkpt lat="44.6192" lon="-0.08209">
        <ele>-32.72322</ele>
        <time>2017-10-15T12:25:01Z</time>
      </trkpt>
      <trkpt lat="44.61921" lon="-0.08227">
        <ele>-34.523166666667</ele>
        <time>2017-10-15T12:25:06Z</time>
      </trkpt>
      <trkpt lat="44.6192" lon="-0.08227">
        <ele>-35.023186666667</ele>
        <time>2017-10-15T12:26:05Z</time>
      </trkpt>
      <trkpt lat="44.61917" lon="-0.08214">
        <ele>-19.02332</ele>
        <time>2017-10-15T12:26:09Z</time>
      </trkpt>
      <trkpt lat="44.61917" lon="-0.08226">
        <ele>-41.923333333333</ele>
        <time>2017-10-15T12:31:28Z</time>
      </trkpt>
      <trkpt lat="44.61925" lon="-0.08222">
        <ele>-28.323</ele>
        <time>2017-10-15T12:35:11Z</time>
      </trkpt>
      <trkpt lat="44.61933" lon="-0.08222">
        <ele>-32.622686666667</ele>
        <time>2017-10-15T12:35:24Z</time>
      </trkpt>
      <trkpt lat="44.61941" lon="-0.08223">
        <ele>-42.222373333333</ele>
        <time>2017-10-15T12:35:33Z</time>
      </trkpt>
      <trkpt lat="44.61949" lon="-0.08222">
        <ele>-42.322026666667</ele>
        <time>2017-10-15T12:35:39Z</time>
      </trkpt>
      <trkpt lat="44.61957" lon="-0.08223">
        <ele>-41.121726666667</ele>
        <time>2017-10-15T12:35:46Z</time>
      </trkpt>
      <trkpt lat="44.61965" lon="-0.08224">
        <ele>-41.22142</ele>
        <time>2017-10-15T12:35:52Z</time>
      </trkpt>
      <trkpt lat="44.61973" lon="-0.08226">
        <ele>-42.22108</ele>
        <time>2017-10-15T12:35:59Z</time>
      </trkpt>
      <trkpt lat="44.61982" lon="-0.08226">
        <ele>-40.82074</ele>
        <time>2017-10-15T12:36:07Z</time>
      </trkpt>
      <trkpt lat="44.6199" lon="-0.08227">
        <ele>-37.820413333333</ele>
        <time>2017-10-15T12:36:13Z</time>
      </trkpt>
      <trkpt lat="44.61998" lon="-0.08231">
        <ele>-35.020073333333</ele>
        <time>2017-10-15T12:36:21Z</time>
      </trkpt>
      <trkpt lat="44.62007" lon="-0.0823">
        <ele>-32.619726666667</ele>
        <time>2017-10-15T12:36:31Z</time>
      </trkpt>
      <trkpt lat="44.62015" lon="-0.08227">
        <ele>-31.7194</ele>
        <time>2017-10-15T12:36:42Z</time>
      </trkpt>
      <trkpt lat="44.62022" lon="-0.08223">
        <ele>-30.81912</ele>
        <time>2017-10-15T12:36:49Z</time>
      </trkpt>
      <trkpt lat="44.62031" lon="-0.08222">
        <ele>-29.718766666667</ele>
        <time>2017-10-15T12:36:57Z</time>
      </trkpt>
      <trkpt lat="44.62039" lon="-0.08225">
        <ele>-28.11844</ele>
        <time>2017-10-15T12:37:05Z</time>
      </trkpt>
      <trkpt lat="44.62047" lon="-0.08229">
        <ele>-26.61814</ele>
        <time>2017-10-15T12:37:13Z</time>
      </trkpt>
      <trkpt lat="44.62053" lon="-0.08236">
        <ele>-27.017873333333</ele>
        <time>2017-10-15T12:37:22Z</time>
      </trkpt>
      <trkpt lat="44.62061" lon="-0.08241">
        <ele>-26.01756</ele>
        <time>2017-10-15T12:37:29Z</time>
      </trkpt>
      <trkpt lat="44.62068" lon="-0.08245">
        <ele>-25.817266666667</ele>
        <time>2017-10-15T12:37:36Z</time>
      </trkpt>
      <trkpt lat="44.62077" lon="-0.08249">
        <ele>-24.01694</ele>
        <time>2017-10-15T12:37:43Z</time>
      </trkpt>
      <trkpt lat="44.62082" lon="-0.08257">
        <ele>-23.916706666667</ele>
        <time>2017-10-15T12:37:50Z</time>
      </trkpt>
      <trkpt lat="44.62088" lon="-0.08265">
        <ele>-26.11648</ele>
        <time>2017-10-15T12:37:57Z</time>
      </trkpt>
      <trkpt lat="44.62095" lon="-0.0827">
        <ele>-25.8162</ele>
        <time>2017-10-15T12:38:03Z</time>
      </trkpt>
      <trkpt lat="44.62103" lon="-0.08273">
        <ele>-25.915893333333</ele>
        <time>2017-10-15T12:38:09Z</time>
      </trkpt>
      <trkpt lat="44.6211" lon="-0.0828">
        <ele>-25.8156</ele>
        <time>2017-10-15T12:38:17Z</time>
      </trkpt>
      <trkpt lat="44.62117" lon="-0.08287">
        <ele>-26.51532</ele>
        <time>2017-10-15T12:38:26Z</time>
      </trkpt>
      <trkpt lat="44.62125" lon="-0.08288">
        <ele>-30.015006666667</ele>
        <time>2017-10-15T12:38:34Z</time>
      </trkpt>
      <trkpt lat="44.62131" lon="-0.08297">
        <ele>-31.51478</ele>
        <time>2017-10-15T12:38:41Z</time>
      </trkpt>
      <trkpt lat="44.62137" lon="-0.08305">
        <ele>-30.014526666667</ele>
        <time>2017-10-15T12:38:48Z</time>
      </trkpt>
      <trkpt lat="44.62141" lon="-0.08316">
        <ele>-32.214366666667</ele>
        <time>2017-10-15T12:38:54Z</time>
      </trkpt>
      <trkpt lat="44.62148" lon="-0.08321">
        <ele>-31.61408</ele>
        <time>2017-10-15T12:39:02Z</time>
      </trkpt>
      <trkpt lat="44.62156" lon="-0.08326">
        <ele>-30.81376</ele>
        <time>2017-10-15T12:39:11Z</time>
      </trkpt>
      <trkpt lat="44.62165" lon="-0.08329">
        <ele>-29.81342</ele>
        <time>2017-10-15T12:39:20Z</time>
      </trkpt>
      <trkpt lat="44.62173" lon="-0.08333">
        <ele>-28.0131</ele>
        <time>2017-10-15T12:39:27Z</time>
      </trkpt>
      <trkpt lat="44.6218" lon="-0.08339">
        <ele>-25.91282</ele>
        <time>2017-10-15T12:39:35Z</time>
      </trkpt>
      <trkpt lat="44.62187" lon="-0.08344">
        <ele>-23.81252</ele>
        <time>2017-10-15T12:39:43Z</time>
      </trkpt>
      <trkpt lat="44.62194" lon="-0.0835">
        <ele>-22.212226666667</ele>
        <time>2017-10-15T12:39:51Z</time>
      </trkpt>
      <trkpt lat="44.62201" lon="-0.08357">
        <ele>-17.311946666667</ele>
        <time>2017-10-15T12:40:00Z</time>
      </trkpt>
      <trkpt lat="44.62209" lon="-0.08362">
        <ele>-18.71166</ele>
        <time>2017-10-15T12:40:15Z</time>
      </trkpt>
      <trkpt lat="44.62217" lon="-0.08365">
        <ele>-18.21134</ele>
        <time>2017-10-15T12:40:22Z</time>
      </trkpt>
      <trkpt lat="44.62224" lon="-0.0837">
        <ele>-17.91104</ele>
        <time>2017-10-15T12:40:27Z</time>
      </trkpt>
      <trkpt lat="44.62232" lon="-0.08373">
        <ele>-14.210726666667</ele>
        <time>2017-10-15T12:40:35Z</time>
      </trkpt>
      <trkpt lat="44.6224" lon="-0.08379">
        <ele>-12.11042</ele>
        <time>2017-10-15T12:40:42Z</time>
      </trkpt>
      <trkpt lat="44.62247" lon="-0.08384">
        <ele>-15.010133333333</ele>
        <time>2017-10-15T12:40:49Z</time>
      </trkpt>
      <trkpt lat="44.62251" lon="-0.08395">
        <ele>-24.509973333333</ele>
        <time>2017-10-15T12:40:59Z</time>
      </trkpt>
      <trkpt lat="44.62257" lon="-0.08403">
        <ele>-27.109726666667</ele>
        <time>2017-10-15T12:41:05Z</time>
      </trkpt>
      <trkpt lat="44.62263" lon="-0.0841">
        <ele>-27.909466666667</ele>
        <time>2017-10-15T12:41:12Z</time>
      </trkpt>
      <trkpt lat="44.6227" lon="-0.08418">
        <ele>-31.309193333333</ele>
        <time>2017-10-15T12:41:21Z</time>
      </trkpt>
      <trkpt lat="44.62278" lon="-0.08423">
        <ele>-29.008893333333</ele>
        <time>2017-10-15T12:41:29Z</time>
      </trkpt>
      <trkpt lat="44.62285" lon="-0.08427">
        <ele>-26.008593333333</ele>
        <time>2017-10-15T12:41:36Z</time>
      </trkpt>
      <trkpt lat="44.62293" lon="-0.0843">
        <ele>-23.2083</ele>
        <time>2017-10-15T12:41:42Z</time>
      </trkpt>
      <trkpt lat="44.62301" lon="-0.08435">
        <ele>-19.707966666667</ele>
        <time>2017-10-15T12:41:50Z</time>
      </trkpt>
      <trkpt lat="44.62309" lon="-0.0844">
        <ele>-13.807653333333</ele>
        <time>2017-10-15T12:41:58Z</time>
      </trkpt>
      <trkpt lat="44.62317" lon="-0.08444">
        <ele>-13.00734</ele>
        <time>2017-10-15T12:42:08Z</time>
      </trkpt>
      <trkpt lat="44.62322" lon="-0.08452">
        <ele>-16.807113333333</ele>
        <time>2017-10-15T12:42:19Z</time>
      </trkpt>
      <trkpt lat="44.62329" lon="-0.08459">
        <ele>-13.00684</ele>
        <time>2017-10-15T12:42:30Z</time>
      </trkpt>
      <trkpt lat="44.62337" lon="-0.08464">
        <ele>-13.606513333333</ele>
        <time>2017-10-15T12:42:35Z</time>
      </trkpt>
      <trkpt lat="44.62346" lon="-0.08467">
        <ele>-13.80618</ele>
        <time>2017-10-15T12:42:42Z</time>
      </trkpt>
      <trkpt lat="44.62354" lon="-0.08472">
        <ele>-11.80586</ele>
        <time>2017-10-15T12:42:50Z</time>
      </trkpt>
      <trkpt lat="44.62359" lon="-0.08482">
        <ele>-13.70566</ele>
        <time>2017-10-15T12:43:06Z</time>
      </trkpt>
      <trkpt lat="44.62359" lon="-0.08492">
        <ele>-8.8056533333333</ele>
        <time>2017-10-15T12:44:14Z</time>
      </trkpt>
      <trkpt lat="44.62368" lon="-0.08491">
        <ele>-13.0053</ele>
        <time>2017-10-15T12:44:19Z</time>
      </trkpt>
      <trkpt lat="44.62371" lon="-0.08502">
        <ele>-10.90518</ele>
        <time>2017-10-15T12:44:34Z</time>
      </trkpt>
      <trkpt lat="44.62373" lon="-0.08513">
        <ele>-10.20508</ele>
        <time>2017-10-15T12:44:41Z</time>
      </trkpt>
      <trkpt lat="44.62373" lon="-0.08525">
        <ele>-10.305073333333</ele>
        <time>2017-10-15T12:44:49Z</time>
      </trkpt>
      <trkpt lat="44.62374" lon="-0.08536">
        <ele>-9.6050466666667</ele>
        <time>2017-10-15T12:44:56Z</time>
      </trkpt>
      <trkpt lat="44.62376" lon="-0.08546">
        <ele>-8.7049466666667</ele>
        <time>2017-10-15T12:45:03Z</time>
      </trkpt>
      <trkpt lat="44.62372" lon="-0.08556">
        <ele>-5.4051266666667</ele>
        <time>2017-10-15T12:45:10Z</time>
      </trkpt>
      <trkpt lat="44.62374" lon="-0.08567">
        <ele>-5.1050266666667</ele>
        <time>2017-10-15T12:45:16Z</time>
      </trkpt>
      <trkpt lat="44.62377" lon="-0.08578">
        <ele>-6.0049133333333</ele>
        <time>2017-10-15T12:45:22Z</time>
      </trkpt>
      <trkpt lat="44.6238" lon="-0.08589">
        <ele>-7.0048133333333</ele>
        <time>2017-10-15T12:45:29Z</time>
      </trkpt>
      <trkpt lat="44.62383" lon="-0.086">
        <ele>-7.3047</ele>
        <time>2017-10-15T12:45:35Z</time>
      </trkpt>
      <trkpt lat="44.62388" lon="-0.08609">
        <ele>-7.5044733333334</ele>
        <time>2017-10-15T12:45:41Z</time>
      </trkpt>
      <trkpt lat="44.62394" lon="-0.08617">
        <ele>-6.30426</ele>
        <time>2017-10-15T12:45:47Z</time>
      </trkpt>
      <trkpt lat="44.62398" lon="-0.08627">
        <ele>-4.1040866666667</ele>
        <time>2017-10-15T12:45:54Z</time>
      </trkpt>
      <trkpt lat="44.62402" lon="-0.08637">
        <ele>-2.9039333333333</ele>
        <time>2017-10-15T12:46:03Z</time>
      </trkpt>
      <trkpt lat="44.62404" lon="-0.08649">
        <ele>-3.9038266666666</ele>
        <time>2017-10-15T12:46:11Z</time>
      </trkpt>
      <trkpt lat="44.62406" lon="-0.0866">
        <ele>-3.2037666666667</ele>
        <time>2017-10-15T12:46:19Z</time>
      </trkpt>
      <trkpt lat="44.62408" lon="-0.08672">
        <ele>-3.5036733333333</ele>
        <time>2017-10-15T12:46:27Z</time>
      </trkpt>
      <trkpt lat="44.62415" lon="-0.0868">
        <ele>-6.30342</ele>
        <time>2017-10-15T12:46:34Z</time>
      </trkpt>
      <trkpt lat="44.62418" lon="-0.08691">
        <ele>-8.0032933333333</ele>
        <time>2017-10-15T12:46:41Z</time>
      </trkpt>
      <trkpt lat="44.62421" lon="-0.08702">
        <ele>-7.0031466666667</ele>
        <time>2017-10-15T12:46:49Z</time>
      </trkpt>
      <trkpt lat="44.62426" lon="-0.08713">
        <ele>-6.9029733333334</ele>
        <time>2017-10-15T12:46:57Z</time>
      </trkpt>
      <trkpt lat="44.62431" lon="-0.08723">
        <ele>-6.20278</ele>
        <time>2017-10-15T12:47:04Z</time>
      </trkpt>
      <trkpt lat="44.62433" lon="-0.08733">
        <ele>-4.20268</ele>
        <time>2017-10-15T12:47:13Z</time>
      </trkpt>
      <trkpt lat="44.62436" lon="-0.08743">
        <ele>-4.70256</ele>
        <time>2017-10-15T12:47:19Z</time>
      </trkpt>
      <trkpt lat="44.62439" lon="-0.08755">
        <ele>-5.3024333333334</ele>
        <time>2017-10-15T12:47:26Z</time>
      </trkpt>
      <trkpt lat="44.62443" lon="-0.08765">
        <ele>-4.60228</ele>
        <time>2017-10-15T12:47:33Z</time>
      </trkpt>
      <trkpt lat="44.62447" lon="-0.08775">
        <ele>-5.30214</ele>
        <time>2017-10-15T12:47:40Z</time>
      </trkpt>
      <trkpt lat="44.6245" lon="-0.08787">
        <ele>-5.30202</ele>
        <time>2017-10-15T12:47:48Z</time>
      </trkpt>
      <trkpt lat="44.62451" lon="-0.08798">
        <ele>-4.10198</ele>
        <time>2017-10-15T12:47:54Z</time>
      </trkpt>
      <trkpt lat="44.62454" lon="-0.08808">
        <ele>-3.6018266666667</ele>
        <time>2017-10-15T12:48:00Z</time>
      </trkpt>
      <trkpt lat="44.62458" lon="-0.08819">
        <ele>-3.00168</ele>
        <time>2017-10-15T12:48:09Z</time>
      </trkpt>
      <trkpt lat="44.62463" lon="-0.08828">
        <ele>-4.4014666666667</ele>
        <time>2017-10-15T12:48:16Z</time>
      </trkpt>
      <trkpt lat="44.62468" lon="-0.08838">
        <ele>-3.3013</ele>
        <time>2017-10-15T12:48:23Z</time>
      </trkpt>
      <trkpt lat="44.62473" lon="-0.08846">
        <ele>-3.80108</ele>
        <time>2017-10-15T12:48:30Z</time>
      </trkpt>
      <trkpt lat="44.6248" lon="-0.08852">
        <ele>-5.3007933333333</ele>
        <time>2017-10-15T12:48:38Z</time>
      </trkpt>
      <trkpt lat="44.62486" lon="-0.08861">
        <ele>-5.8005666666667</ele>
        <time>2017-10-15T12:48:45Z</time>
      </trkpt>
      <trkpt lat="44.62492" lon="-0.08869">
        <ele>-5.8003333333333</ele>
        <time>2017-10-15T12:48:51Z</time>
      </trkpt>
      <trkpt lat="44.62497" lon="-0.08877">
        <ele>-7.20012</ele>
        <time>2017-10-15T12:48:58Z</time>
      </trkpt>
      <trkpt lat="44.62502" lon="-0.08886">
        <ele>-10.09992</ele>
        <time>2017-10-15T12:49:06Z</time>
      </trkpt>
      <trkpt lat="44.62509" lon="-0.08894">
        <ele>-9.5996466666667</ele>
        <time>2017-10-15T12:49:13Z</time>
      </trkpt>
      <trkpt lat="44.62516" lon="-0.08901">
        <ele>-8.8993466666667</ele>
        <time>2017-10-15T12:49:20Z</time>
      </trkpt>
      <trkpt lat="44.6252" lon="-0.08912">
        <ele>-6.4991866666666</ele>
        <time>2017-10-15T12:49:31Z</time>
      </trkpt>
      <trkpt lat="44.62527" lon="-0.08921">
        <ele>-6.89894</ele>
        <time>2017-10-15T12:49:38Z</time>
      </trkpt>
      <trkpt lat="44.62529" lon="-0.08932">
        <ele>-8.7988466666666</ele>
        <time>2017-10-15T12:49:46Z</time>
      </trkpt>
      <trkpt lat="44.62535" lon="-0.08939">
        <ele>-9.9986066666666</ele>
        <time>2017-10-15T12:49:52Z</time>
      </trkpt>
      <trkpt lat="44.62541" lon="-0.08947">
        <ele>-9.3983466666667</ele>
        <time>2017-10-15T12:50:01Z</time>
      </trkpt>
      <trkpt lat="44.62548" lon="-0.08954">
        <ele>-8.7980666666666</ele>
        <time>2017-10-15T12:50:08Z</time>
      </trkpt>
      <trkpt lat="44.62555" lon="-0.08962">
        <ele>-7.9978133333333</ele>
        <time>2017-10-15T12:50:14Z</time>
      </trkpt>
      <trkpt lat="44.62561" lon="-0.08967">
        <ele>-6.2975466666667</ele>
        <time>2017-10-15T12:50:19Z</time>
      </trkpt>
      <trkpt lat="44.62568" lon="-0.08974">
        <ele>-4.1973</ele>
        <time>2017-10-15T12:50:24Z</time>
      </trkpt>
      <trkpt lat="44.62571" lon="-0.08984">
        <ele>-4.4971466666667</ele>
        <time>2017-10-15T12:50:35Z</time>
      </trkpt>
      <trkpt lat="44.62577" lon="-0.08992">
        <ele>-1.8969066666667</ele>
        <time>2017-10-15T12:50:43Z</time>
      </trkpt>
      <trkpt lat="44.62585" lon="-0.08997">
        <ele>2.20338</ele>
        <time>2017-10-15T12:50:49Z</time>
      </trkpt>
      <trkpt lat="44.62588" lon="-0.09006">
        <ele>0.10353333333334</ele>
        <time>2017-10-15T12:50:56Z</time>
      </trkpt>
      <trkpt lat="44.62594" lon="-0.09014">
        <ele>-0.39622666666667</ele>
        <time>2017-10-15T12:51:02Z</time>
      </trkpt>
      <trkpt lat="44.62601" lon="-0.09023">
        <ele>2.0040333333333</ele>
        <time>2017-10-15T12:51:12Z</time>
      </trkpt>
      <trkpt lat="44.62605" lon="-0.09033">
        <ele>-0.39581333333336</ele>
        <time>2017-10-15T12:51:20Z</time>
      </trkpt>
      <trkpt lat="44.62608" lon="-0.09044">
        <ele>-1.2956733333333</ele>
        <time>2017-10-15T12:51:28Z</time>
      </trkpt>
      <trkpt lat="44.62613" lon="-0.09054">
        <ele>0.0045333333333417</ele>
        <time>2017-10-15T12:51:34Z</time>
      </trkpt>
      <trkpt lat="44.62619" lon="-0.09063">
        <ele>1.3047666666667</ele>
        <time>2017-10-15T12:51:41Z</time>
      </trkpt>
      <trkpt lat="44.62618" lon="-0.09075">
        <ele>3.8047333333333</ele>
        <time>2017-10-15T12:51:52Z</time>
      </trkpt>
      <trkpt lat="44.62615" lon="-0.09086">
        <ele>7.6046</ele>
        <time>2017-10-15T12:52:02Z</time>
      </trkpt>
      <trkpt lat="44.62619" lon="-0.09097">
        <ele>4.3047533333333</ele>
        <time>2017-10-15T12:52:10Z</time>
      </trkpt>
      <trkpt lat="44.62621" lon="-0.09109">
        <ele>2.6048266666667</ele>
        <time>2017-10-15T12:52:17Z</time>
      </trkpt>
      <trkpt lat="44.62624" lon="-0.09119">
        <ele>2.1049666666667</ele>
        <time>2017-10-15T12:52:22Z</time>
      </trkpt>
      <trkpt lat="44.62628" lon="-0.0913">
        <ele>3.6051266666667</ele>
        <time>2017-10-15T12:52:28Z</time>
      </trkpt>
      <trkpt lat="44.62635" lon="-0.09139">
        <ele>-0.39461333333335</ele>
        <time>2017-10-15T12:52:36Z</time>
      </trkpt>
      <trkpt lat="44.62639" lon="-0.09149">
        <ele>0.20554</ele>
        <time>2017-10-15T12:52:42Z</time>
      </trkpt>
      <trkpt lat="44.62643" lon="-0.09159">
        <ele>-1.3942866666667</ele>
        <time>2017-10-15T12:52:50Z</time>
      </trkpt>
      <trkpt lat="44.62643" lon="-0.09171">
        <ele>-0.19429333333331</ele>
        <time>2017-10-15T12:52:57Z</time>
      </trkpt>
      <trkpt lat="44.62645" lon="-0.09183">
        <ele>-0.79420666666665</ele>
        <time>2017-10-15T12:53:04Z</time>
      </trkpt>
      <trkpt lat="44.62647" lon="-0.09195">
        <ele>0.20589333333332</ele>
        <time>2017-10-15T12:53:13Z</time>
      </trkpt>
      <trkpt lat="44.62654" lon="-0.09201">
        <ele>6.8061533333333</ele>
        <time>2017-10-15T12:53:32Z</time>
      </trkpt>
      <trkpt lat="44.62658" lon="-0.09212">
        <ele>5.9063066666667</ele>
        <time>2017-10-15T12:53:39Z</time>
      </trkpt>
      <trkpt lat="44.62662" lon="-0.09222">
        <ele>5.70646</ele>
        <time>2017-10-15T12:53:45Z</time>
      </trkpt>
      <trkpt lat="44.62664" lon="-0.09233">
        <ele>6.1065666666667</ele>
        <time>2017-10-15T12:53:51Z</time>
      </trkpt>
      <trkpt lat="44.62669" lon="-0.09241">
        <ele>5.0067466666667</ele>
        <time>2017-10-15T12:53:57Z</time>
      </trkpt>
      <trkpt lat="44.62673" lon="-0.09252">
        <ele>3.60692</ele>
        <time>2017-10-15T12:54:04Z</time>
      </trkpt>
      <trkpt lat="44.62679" lon="-0.09261">
        <ele>5.10716</ele>
        <time>2017-10-15T12:54:11Z</time>
      </trkpt>
      <trkpt lat="44.62681" lon="-0.09273">
        <ele>7.5072533333333</ele>
        <time>2017-10-15T12:54:19Z</time>
      </trkpt>
      <trkpt lat="44.62684" lon="-0.09284">
        <ele>6.6073733333333</ele>
        <time>2017-10-15T12:54:26Z</time>
      </trkpt>
      <trkpt lat="44.62684" lon="-0.09296">
        <ele>5.8073666666667</ele>
        <time>2017-10-15T12:54:34Z</time>
      </trkpt>
      <trkpt lat="44.62688" lon="-0.09306">
        <ele>3.2075266666667</ele>
        <time>2017-10-15T12:54:42Z</time>
      </trkpt>
      <trkpt lat="44.6269" lon="-0.09318">
        <ele>4.7075866666667</ele>
        <time>2017-10-15T12:54:50Z</time>
      </trkpt>
      <trkpt lat="44.62694" lon="-0.09329">
        <ele>4.3077533333333</ele>
        <time>2017-10-15T12:54:57Z</time>
      </trkpt>
      <trkpt lat="44.62694" lon="-0.09341">
        <ele>4.2077466666667</ele>
        <time>2017-10-15T12:55:04Z</time>
      </trkpt>
      <trkpt lat="44.627" lon="-0.0935">
        <ele>3.4079866666667</ele>
        <time>2017-10-15T12:55:24Z</time>
      </trkpt>
      <trkpt lat="44.62707" lon="-0.09346">
        <ele>6.90828</ele>
        <time>2017-10-15T12:55:32Z</time>
      </trkpt>
      <trkpt lat="44.62715" lon="-0.09344">
        <ele>7.6085933333333</ele>
        <time>2017-10-15T12:55:39Z</time>
      </trkpt>
      <trkpt lat="44.62724" lon="-0.09342">
        <ele>6.4089466666667</ele>
        <time>2017-10-15T12:55:50Z</time>
      </trkpt>
      <trkpt lat="44.62732" lon="-0.09338">
        <ele>7.3092866666667</ele>
        <time>2017-10-15T12:55:57Z</time>
      </trkpt>
      <trkpt lat="44.6274" lon="-0.09332">
        <ele>9.0096</ele>
        <time>2017-10-15T12:56:06Z</time>
      </trkpt>
      <trkpt lat="44.62745" lon="-0.09324">
        <ele>10.409813333333</ele>
        <time>2017-10-15T12:56:13Z</time>
      </trkpt>
      <trkpt lat="44.62752" lon="-0.09318">
        <ele>7.2100933333333</ele>
        <time>2017-10-15T12:56:17Z</time>
      </trkpt>
      <trkpt lat="44.6276" lon="-0.09315">
        <ele>4.2104</ele>
        <time>2017-10-15T12:56:24Z</time>
      </trkpt>
      <trkpt lat="44.62768" lon="-0.09312">
        <ele>2.5107133333334</ele>
        <time>2017-10-15T12:56:33Z</time>
      </trkpt>
      <trkpt lat="44.62776" lon="-0.09308">
        <ele>1.6110266666667</ele>
        <time>2017-10-15T12:56:42Z</time>
      </trkpt>
      <trkpt lat="44.62784" lon="-0.09305">
        <ele>2.1113533333333</ele>
        <time>2017-10-15T12:56:50Z</time>
      </trkpt>
      <trkpt lat="44.62792" lon="-0.09304">
        <ele>4.8116866666667</ele>
        <time>2017-10-15T12:56:57Z</time>
      </trkpt>
      <trkpt lat="44.62801" lon="-0.09302">
        <ele>7.3120333333334</ele>
        <time>2017-10-15T12:57:05Z</time>
      </trkpt>
      <trkpt lat="44.62809" lon="-0.093">
        <ele>8.0123466666667</ele>
        <time>2017-10-15T12:57:12Z</time>
      </trkpt>
      <trkpt lat="44.62817" lon="-0.09297">
        <ele>9.5126933333334</ele>
        <time>2017-10-15T12:57:19Z</time>
      </trkpt>
      <trkpt lat="44.62825" lon="-0.09292">
        <ele>10.212986666667</ele>
        <time>2017-10-15T12:57:27Z</time>
      </trkpt>
      <trkpt lat="44.62832" lon="-0.09289">
        <ele>11.213293333333</ele>
        <time>2017-10-15T12:57:33Z</time>
      </trkpt>
      <trkpt lat="44.62839" lon="-0.09281">
        <ele>12.91356</ele>
        <time>2017-10-15T12:57:40Z</time>
      </trkpt>
      <trkpt lat="44.62845" lon="-0.09275">
        <ele>14.013806666667</ele>
        <time>2017-10-15T12:57:48Z</time>
      </trkpt>
      <trkpt lat="44.62852" lon="-0.09271">
        <ele>14.714086666667</ele>
        <time>2017-10-15T12:57:53Z</time>
      </trkpt>
      <trkpt lat="44.62861" lon="-0.09271">
        <ele>13.014433333333</ele>
        <time>2017-10-15T12:57:58Z</time>
      </trkpt>
      <trkpt lat="44.62869" lon="-0.09269">
        <ele>8.9147533333333</ele>
        <time>2017-10-15T12:58:03Z</time>
      </trkpt>
      <trkpt lat="44.62876" lon="-0.09263">
        <ele>7.4150466666667</ele>
        <time>2017-10-15T12:58:11Z</time>
      </trkpt>
      <trkpt lat="44.62885" lon="-0.09262">
        <ele>5.9153933333333</ele>
        <time>2017-10-15T12:58:17Z</time>
      </trkpt>
      <trkpt lat="44.62892" lon="-0.09257">
        <ele>6.5156866666667</ele>
        <time>2017-10-15T12:58:24Z</time>
      </trkpt>
      <trkpt lat="44.62901" lon="-0.09255">
        <ele>5.6160333333333</ele>
        <time>2017-10-15T12:58:33Z</time>
      </trkpt>
      <trkpt lat="44.629" lon="-0.09243">
        <ele>-7.08402</ele>
        <time>2017-10-15T12:58:44Z</time>
      </trkpt>
      <trkpt lat="44.62907" lon="-0.0924">
        <ele>-7.2837266666667</ele>
        <time>2017-10-15T12:58:49Z</time>
      </trkpt>
      <trkpt lat="44.62912" lon="-0.09231">
        <ele>-7.3835333333333</ele>
        <time>2017-10-15T12:58:55Z</time>
      </trkpt>
      <trkpt lat="44.62916" lon="-0.09222">
        <ele>-4.1833466666667</ele>
        <time>2017-10-15T12:59:00Z</time>
      </trkpt>
      <trkpt lat="44.62923" lon="-0.09214">
        <ele>-2.5830866666667</ele>
        <time>2017-10-15T12:59:06Z</time>
      </trkpt>
      <trkpt lat="44.62932" lon="-0.09209">
        <ele>-5.18272</ele>
        <time>2017-10-15T12:59:11Z</time>
      </trkpt>
      <trkpt lat="44.6294" lon="-0.09202">
        <ele>-3.4824133333333</ele>
        <time>2017-10-15T12:59:15Z</time>
      </trkpt>
      <trkpt lat="44.62941" lon="-0.0919">
        <ele>2.9176266666667</ele>
        <time>2017-10-15T12:59:27Z</time>
      </trkpt>
      <trkpt lat="44.62949" lon="-0.09191">
        <ele>10.317966666667</ele>
        <time>2017-10-15T13:06:47Z</time>
      </trkpt>
      <trkpt lat="44.62957" lon="-0.09186">
        <ele>7.8182866666667</ele>
        <time>2017-10-15T13:06:56Z</time>
      </trkpt>
      <trkpt lat="44.62965" lon="-0.09181">
        <ele>5.0186</ele>
        <time>2017-10-15T13:07:04Z</time>
      </trkpt>
      <trkpt lat="44.62972" lon="-0.09175">
        <ele>2.7188666666667</ele>
        <time>2017-10-15T13:07:12Z</time>
      </trkpt>
      <trkpt lat="44.62978" lon="-0.09168">
        <ele>1.9191333333333</ele>
        <time>2017-10-15T13:07:19Z</time>
      </trkpt>
      <trkpt lat="44.62985" lon="-0.09161">
        <ele>0.2194066666667</ele>
        <time>2017-10-15T13:07:26Z</time>
      </trkpt>
      <trkpt lat="44.62993" lon="-0.09155">
        <ele>0.41972666666668</ele>
        <time>2017-10-15T13:07:33Z</time>
      </trkpt>
      <trkpt lat="44.63001" lon="-0.09149">
        <ele>0.92003333333334</ele>
        <time>2017-10-15T13:07:40Z</time>
      </trkpt>
      <trkpt lat="44.63007" lon="-0.09142">
        <ele>1.9202866666667</ele>
        <time>2017-10-15T13:07:50Z</time>
      </trkpt>
      <trkpt lat="44.63015" lon="-0.09138">
        <ele>1.3206133333333</ele>
        <time>2017-10-15T13:07:59Z</time>
      </trkpt>
      <trkpt lat="44.63022" lon="-0.09131">
        <ele>1.2208666666667</ele>
        <time>2017-10-15T13:08:06Z</time>
      </trkpt>
      <trkpt lat="44.63029" lon="-0.09126">
        <ele>-0.078859999999999</ele>
        <time>2017-10-15T13:08:12Z</time>
      </trkpt>
      <trkpt lat="44.63036" lon="-0.09121">
        <ele>-0.27858000000002</ele>
        <time>2017-10-15T13:08:19Z</time>
      </trkpt>
      <trkpt lat="44.63044" lon="-0.09119">
        <ele>2.5217466666667</ele>
        <time>2017-10-15T13:08:28Z</time>
      </trkpt>
      <trkpt lat="44.63053" lon="-0.09119">
        <ele>6.1221</ele>
        <time>2017-10-15T13:08:34Z</time>
      </trkpt>
      <trkpt lat="44.63059" lon="-0.09126">
        <ele>9.7223533333333</ele>
        <time>2017-10-15T13:08:41Z</time>
      </trkpt>
      <trkpt lat="44.63064" lon="-0.09135">
        <ele>12.22254</ele>
        <time>2017-10-15T13:08:49Z</time>
      </trkpt>
      <trkpt lat="44.63067" lon="-0.09146">
        <ele>14.72266</ele>
        <time>2017-10-15T13:08:59Z</time>
      </trkpt>
      <trkpt lat="44.63074" lon="-0.09152">
        <ele>16.722953333333</ele>
        <time>2017-10-15T13:09:04Z</time>
      </trkpt>
      <trkpt lat="44.63082" lon="-0.09157">
        <ele>15.92326</ele>
        <time>2017-10-15T13:09:41Z</time>
      </trkpt>
      <trkpt lat="44.63089" lon="-0.0916">
        <ele>13.423573333333</ele>
        <time>2017-10-15T13:09:47Z</time>
      </trkpt>
      <trkpt lat="44.63097" lon="-0.09158">
        <ele>14.42388</ele>
        <time>2017-10-15T13:09:53Z</time>
      </trkpt>
      <trkpt lat="44.63104" lon="-0.09152">
        <ele>14.924166666667</ele>
        <time>2017-10-15T13:09:59Z</time>
      </trkpt>
      <trkpt lat="44.63111" lon="-0.09144">
        <ele>14.824446666667</ele>
        <time>2017-10-15T13:10:06Z</time>
      </trkpt>
      <trkpt lat="44.63119" lon="-0.09137">
        <ele>15.12474</ele>
        <time>2017-10-15T13:10:14Z</time>
      </trkpt>
      <trkpt lat="44.63126" lon="-0.0913">
        <ele>13.32502</ele>
        <time>2017-10-15T13:10:24Z</time>
      </trkpt>
      <trkpt lat="44.6313" lon="-0.0912">
        <ele>11.625186666667</ele>
        <time>2017-10-15T13:10:31Z</time>
      </trkpt>
      <trkpt lat="44.63137" lon="-0.09112">
        <ele>10.325466666667</ele>
        <time>2017-10-15T13:10:38Z</time>
      </trkpt>
      <trkpt lat="44.63144" lon="-0.09106">
        <ele>10.425773333333</ele>
        <time>2017-10-15T13:10:46Z</time>
      </trkpt>
      <trkpt lat="44.6315" lon="-0.09098">
        <ele>11.226</ele>
        <time>2017-10-15T13:10:53Z</time>
      </trkpt>
      <trkpt lat="44.63157" lon="-0.09092">
        <ele>12.926286666667</ele>
        <time>2017-10-15T13:11:00Z</time>
      </trkpt>
      <trkpt lat="44.63164" lon="-0.09084">
        <ele>15.12656</ele>
        <time>2017-10-15T13:11:08Z</time>
      </trkpt>
      <trkpt lat="44.63171" lon="-0.09079">
        <ele>17.12684</ele>
        <time>2017-10-15T13:11:15Z</time>
      </trkpt>
      <trkpt lat="44.63177" lon="-0.09072">
        <ele>17.12708</ele>
        <time>2017-10-15T13:11:20Z</time>
      </trkpt>
      <trkpt lat="44.63183" lon="-0.09064">
        <ele>13.627333333333</ele>
        <time>2017-10-15T13:11:25Z</time>
      </trkpt>
      <trkpt lat="44.6319" lon="-0.09057">
        <ele>12.827593333333</ele>
        <time>2017-10-15T13:11:33Z</time>
      </trkpt>
      <trkpt lat="44.63198" lon="-0.0905">
        <ele>12.6279</ele>
        <time>2017-10-15T13:11:43Z</time>
      </trkpt>
      <trkpt lat="44.63203" lon="-0.09041">
        <ele>14.1281</ele>
        <time>2017-10-15T13:11:50Z</time>
      </trkpt>
      <trkpt lat="44.63209" lon="-0.09033">
        <ele>13.028373333333</ele>
        <time>2017-10-15T13:11:56Z</time>
      </trkpt>
      <trkpt lat="44.63216" lon="-0.09026">
        <ele>7.3286533333333</ele>
        <time>2017-10-15T13:12:01Z</time>
      </trkpt>
      <trkpt lat="44.63223" lon="-0.09019">
        <ele>5.9289333333334</ele>
        <time>2017-10-15T13:12:09Z</time>
      </trkpt>
      <trkpt lat="44.6323" lon="-0.09012">
        <ele>7.7292133333333</ele>
        <time>2017-10-15T13:12:19Z</time>
      </trkpt>
      <trkpt lat="44.63239" lon="-0.09007">
        <ele>9.32954</ele>
        <time>2017-10-15T13:12:28Z</time>
      </trkpt>
      <trkpt lat="44.63245" lon="-0.09001">
        <ele>11.729806666667</ele>
        <time>2017-10-15T13:12:35Z</time>
      </trkpt>
      <trkpt lat="44.63252" lon="-0.08995">
        <ele>12.730073333333</ele>
        <time>2017-10-15T13:12:41Z</time>
      </trkpt>
      <trkpt lat="44.6326" lon="-0.08991">
        <ele>13.43038</ele>
        <time>2017-10-15T13:12:47Z</time>
      </trkpt>
      <trkpt lat="44.63268" lon="-0.08988">
        <ele>11.330706666667</ele>
        <time>2017-10-15T13:12:54Z</time>
      </trkpt>
      <trkpt lat="44.63276" lon="-0.08988">
        <ele>9.63102</ele>
        <time>2017-10-15T13:13:20Z</time>
      </trkpt>
      <trkpt lat="44.63284" lon="-0.08987">
        <ele>7.9313666666667</ele>
        <time>2017-10-15T13:13:27Z</time>
      </trkpt>
      <trkpt lat="44.63292" lon="-0.08985">
        <ele>8.13166</ele>
        <time>2017-10-15T13:13:33Z</time>
      </trkpt>
      <trkpt lat="44.633" lon="-0.08984">
        <ele>10.632013333333</ele>
        <time>2017-10-15T13:13:41Z</time>
      </trkpt>
      <trkpt lat="44.63308" lon="-0.08983">
        <ele>11.032333333333</ele>
        <time>2017-10-15T13:13:47Z</time>
      </trkpt>
      <trkpt lat="44.63317" lon="-0.08984">
        <ele>10.13266</ele>
        <time>2017-10-15T13:13:54Z</time>
      </trkpt>
      <trkpt lat="44.63325" lon="-0.0898">
        <ele>10.532993333333</ele>
        <time>2017-10-15T13:14:02Z</time>
      </trkpt>
      <trkpt lat="44.63333" lon="-0.08977">
        <ele>10.03332</ele>
        <time>2017-10-15T13:14:10Z</time>
      </trkpt>
      <trkpt lat="44.6334" lon="-0.0897">
        <ele>10.633613333333</ele>
        <time>2017-10-15T13:14:18Z</time>
      </trkpt>
      <trkpt lat="44.63347" lon="-0.08961">
        <ele>11.533866666667</ele>
        <time>2017-10-15T13:14:26Z</time>
      </trkpt>
      <trkpt lat="44.63355" lon="-0.08959">
        <ele>10.834206666667</ele>
        <time>2017-10-15T13:14:33Z</time>
      </trkpt>
      <trkpt lat="44.63362" lon="-0.08952">
        <ele>8.7344866666667</ele>
        <time>2017-10-15T13:14:42Z</time>
      </trkpt>
      <trkpt lat="44.63369" lon="-0.08944">
        <ele>8.5347466666667</ele>
        <time>2017-10-15T13:14:50Z</time>
      </trkpt>
      <trkpt lat="44.63375" lon="-0.08936">
        <ele>11.134993333333</ele>
        <time>2017-10-15T13:14:56Z</time>
      </trkpt>
      <trkpt lat="44.63383" lon="-0.0893">
        <ele>12.035313333333</ele>
        <time>2017-10-15T13:15:03Z</time>
      </trkpt>
      <trkpt lat="44.63391" lon="-0.08927">
        <ele>12.93562</ele>
        <time>2017-10-15T13:15:09Z</time>
      </trkpt>
      <trkpt lat="44.63398" lon="-0.0892">
        <ele>16.535906666667</ele>
        <time>2017-10-15T13:15:15Z</time>
      </trkpt>
      <trkpt lat="44.63406" lon="-0.08917">
        <ele>20.036226666667</ele>
        <time>2017-10-15T13:15:23Z</time>
      </trkpt>
      <trkpt lat="44.63413" lon="-0.08921">
        <ele>19.936526666667</ele>
        <time>2017-10-15T13:15:30Z</time>
      </trkpt>
      <trkpt lat="44.63421" lon="-0.08925">
        <ele>19.836826666667</ele>
        <time>2017-10-15T13:15:36Z</time>
      </trkpt>
      <trkpt lat="44.63424" lon="-0.08936">
        <ele>14.536946666667</ele>
        <time>2017-10-15T13:15:44Z</time>
      </trkpt>
      <trkpt lat="44.63428" lon="-0.08946">
        <ele>12.037106666667</ele>
        <time>2017-10-15T13:15:51Z</time>
      </trkpt>
      <trkpt lat="44.63432" lon="-0.08953">
        <ele>12.037286666667</ele>
        <time>2017-10-15T13:15:57Z</time>
      </trkpt>
      <trkpt lat="44.63439" lon="-0.08959">
        <ele>13.93754</ele>
        <time>2017-10-15T13:16:01Z</time>
      </trkpt>
      <trkpt lat="44.63444" lon="-0.08968">
        <ele>14.737766666667</ele>
        <time>2017-10-15T13:16:08Z</time>
      </trkpt>
      <trkpt lat="44.63451" lon="-0.08977">
        <ele>16.93802</ele>
        <time>2017-10-15T13:16:16Z</time>
      </trkpt>
      <trkpt lat="44.63457" lon="-0.08984">
        <ele>16.83828</ele>
        <time>2017-10-15T13:16:23Z</time>
      </trkpt>
      <trkpt lat="44.63464" lon="-0.08991">
        <ele>18.63856</ele>
        <time>2017-10-15T13:16:29Z</time>
      </trkpt>
      <trkpt lat="44.6347" lon="-0.09">
        <ele>14.938786666667</ele>
        <time>2017-10-15T13:16:41Z</time>
      </trkpt>
      <trkpt lat="44.63478" lon="-0.09">
        <ele>14.539133333333</ele>
        <time>2017-10-15T13:16:48Z</time>
      </trkpt>
      <trkpt lat="44.63487" lon="-0.08997">
        <ele>14.739466666667</ele>
        <time>2017-10-15T13:16:56Z</time>
      </trkpt>
      <trkpt lat="44.63495" lon="-0.08994">
        <ele>10.839786666667</ele>
        <time>2017-10-15T13:17:03Z</time>
      </trkpt>
      <trkpt lat="44.63502" lon="-0.08987">
        <ele>8.84006</ele>
        <time>2017-10-15T13:17:10Z</time>
      </trkpt>
      <trkpt lat="44.63507" lon="-0.08979">
        <ele>9.34028</ele>
        <time>2017-10-15T13:17:16Z</time>
      </trkpt>
      <trkpt lat="44.63511" lon="-0.08968">
        <ele>11.64044</ele>
        <time>2017-10-15T13:17:23Z</time>
      </trkpt>
      <trkpt lat="44.63518" lon="-0.08962">
        <ele>11.540713333333</ele>
        <time>2017-10-15T13:17:30Z</time>
      </trkpt>
      <trkpt lat="44.63524" lon="-0.08955">
        <ele>10.940973333333</ele>
        <time>2017-10-15T13:17:36Z</time>
      </trkpt>
      <trkpt lat="44.63532" lon="-0.0895">
        <ele>11.84128</ele>
        <time>2017-10-15T13:17:43Z</time>
      </trkpt>
      <trkpt lat="44.6354" lon="-0.08946">
        <ele>7.4416</ele>
        <time>2017-10-15T13:17:51Z</time>
      </trkpt>
      <trkpt lat="44.63547" lon="-0.0894">
        <ele>7.3418933333333</ele>
        <time>2017-10-15T13:18:00Z</time>
      </trkpt>
      <trkpt lat="44.63555" lon="-0.08937">
        <ele>9.3422133333333</ele>
        <time>2017-10-15T13:18:07Z</time>
      </trkpt>
      <trkpt lat="44.63564" lon="-0.08935">
        <ele>11.04256</ele>
        <time>2017-10-15T13:18:15Z</time>
      </trkpt>
      <trkpt lat="44.63573" lon="-0.08936">
        <ele>12.2429</ele>
        <time>2017-10-15T13:18:23Z</time>
      </trkpt>
      <trkpt lat="44.63581" lon="-0.08937">
        <ele>13.34324</ele>
        <time>2017-10-15T13:18:30Z</time>
      </trkpt>
      <trkpt lat="44.6359" lon="-0.08937">
        <ele>17.74358</ele>
        <time>2017-10-15T13:18:37Z</time>
      </trkpt>
      <trkpt lat="44.63598" lon="-0.08937">
        <ele>20.24392</ele>
        <time>2017-10-15T13:18:44Z</time>
      </trkpt>
      <trkpt lat="44.63606" lon="-0.08939">
        <ele>21.444253333333</ele>
        <time>2017-10-15T13:18:50Z</time>
      </trkpt>
      <trkpt lat="44.63614" lon="-0.08943">
        <ele>20.244566666667</ele>
        <time>2017-10-15T13:18:57Z</time>
      </trkpt>
      <trkpt lat="44.63622" lon="-0.08947">
        <ele>18.144873333333</ele>
        <time>2017-10-15T13:19:04Z</time>
      </trkpt>
      <trkpt lat="44.6363" lon="-0.08952">
        <ele>14.345206666667</ele>
        <time>2017-10-15T13:19:16Z</time>
      </trkpt>
      <trkpt lat="44.63638" lon="-0.08956">
        <ele>15.245513333333</ele>
        <time>2017-10-15T13:19:23Z</time>
      </trkpt>
      <trkpt lat="44.63647" lon="-0.08959">
        <ele>14.54586</ele>
        <time>2017-10-15T13:19:30Z</time>
      </trkpt>
      <trkpt lat="44.63655" lon="-0.08961">
        <ele>15.246206666667</ele>
        <time>2017-10-15T13:19:36Z</time>
      </trkpt>
      <trkpt lat="44.63664" lon="-0.08965">
        <ele>14.446546666667</ele>
        <time>2017-10-15T13:19:43Z</time>
      </trkpt>
      <trkpt lat="44.63671" lon="-0.08964">
        <ele>15.846853333333</ele>
        <time>2017-10-15T13:19:48Z</time>
      </trkpt>
      <trkpt lat="44.6368" lon="-0.08967">
        <ele>16.647186666667</ele>
        <time>2017-10-15T13:19:55Z</time>
      </trkpt>
      <trkpt lat="44.63688" lon="-0.0897">
        <ele>17.147513333333</ele>
        <time>2017-10-15T13:20:01Z</time>
      </trkpt>
      <trkpt lat="44.63696" lon="-0.08972">
        <ele>17.14784</ele>
        <time>2017-10-15T13:20:07Z</time>
      </trkpt>
      <trkpt lat="44.63704" lon="-0.08978">
        <ele>14.748146666667</ele>
        <time>2017-10-15T13:20:18Z</time>
      </trkpt>
      <trkpt lat="44.63712" lon="-0.08981">
        <ele>16.94846</ele>
        <time>2017-10-15T13:20:26Z</time>
      </trkpt>
      <trkpt lat="44.6372" lon="-0.08985">
        <ele>15.848793333333</ele>
        <time>2017-10-15T13:20:33Z</time>
      </trkpt>
      <trkpt lat="44.63728" lon="-0.08988">
        <ele>14.849113333333</ele>
        <time>2017-10-15T13:20:40Z</time>
      </trkpt>
      <trkpt lat="44.63736" lon="-0.08992">
        <ele>13.64944</ele>
        <time>2017-10-15T13:20:47Z</time>
      </trkpt>
      <trkpt lat="44.63744" lon="-0.08996">
        <ele>11.449753333333</ele>
        <time>2017-10-15T13:20:58Z</time>
      </trkpt>
      <trkpt lat="44.63753" lon="-0.08997">
        <ele>12.150106666667</ele>
        <time>2017-10-15T13:21:04Z</time>
      </trkpt>
      <trkpt lat="44.63761" lon="-0.08998">
        <ele>14.050453333333</ele>
        <time>2017-10-15T13:21:09Z</time>
      </trkpt>
      <trkpt lat="44.63769" lon="-0.08999">
        <ele>15.950766666667</ele>
        <time>2017-10-15T13:21:13Z</time>
      </trkpt>
      <trkpt lat="44.63777" lon="-0.09">
        <ele>15.751086666667</ele>
        <time>2017-10-15T13:21:19Z</time>
      </trkpt>
      <trkpt lat="44.63785" lon="-0.09">
        <ele>17.351393333333</ele>
        <time>2017-10-15T13:21:25Z</time>
      </trkpt>
      <trkpt lat="44.63793" lon="-0.08996">
        <ele>17.651733333333</ele>
        <time>2017-10-15T13:21:34Z</time>
      </trkpt>
      <trkpt lat="44.63799" lon="-0.08992">
        <ele>24.45196</ele>
        <time>2017-10-15T13:26:31Z</time>
      </trkpt>
      <trkpt lat="44.63801" lon="-0.08979">
        <ele>25.25202</ele>
        <time>2017-10-15T13:26:36Z</time>
      </trkpt>
      <trkpt lat="44.63799" lon="-0.08967">
        <ele>26.051973333333</ele>
        <time>2017-10-15T13:26:45Z</time>
      </trkpt>
      <trkpt lat="44.63797" lon="-0.08955">
        <ele>31.251886666667</ele>
        <time>2017-10-15T13:26:59Z</time>
      </trkpt>
      <trkpt lat="44.63797" lon="-0.08943">
        <ele>28.551886666667</ele>
        <time>2017-10-15T13:27:06Z</time>
      </trkpt>
      <trkpt lat="44.63799" lon="-0.08931">
        <ele>27.051946666667</ele>
        <time>2017-10-15T13:27:12Z</time>
      </trkpt>
      <trkpt lat="44.63796" lon="-0.08921">
        <ele>26.651853333333</ele>
        <time>2017-10-15T13:27:19Z</time>
      </trkpt>
      <trkpt lat="44.63794" lon="-0.0891">
        <ele>26.851753333333</ele>
        <time>2017-10-15T13:27:25Z</time>
      </trkpt>
      <trkpt lat="44.63792" lon="-0.08899">
        <ele>25.45168</ele>
        <time>2017-10-15T13:27:32Z</time>
      </trkpt>
      <trkpt lat="44.63792" lon="-0.08887">
        <ele>26.151673333333</ele>
        <time>2017-10-15T13:27:41Z</time>
      </trkpt>
      <trkpt lat="44.63791" lon="-0.08875">
        <ele>26.351633333333</ele>
        <time>2017-10-15T13:27:48Z</time>
      </trkpt>
      <trkpt lat="44.6379" lon="-0.08864">
        <ele>25.4516</ele>
        <time>2017-10-15T13:27:55Z</time>
      </trkpt>
      <trkpt lat="44.6379" lon="-0.08851">
        <ele>22.451613333333</ele>
        <time>2017-10-15T13:28:02Z</time>
      </trkpt>
      <trkpt lat="44.63789" lon="-0.08839">
        <ele>21.351573333333</ele>
        <time>2017-10-15T13:28:08Z</time>
      </trkpt>
      <trkpt lat="44.63789" lon="-0.08827">
        <ele>21.05154</ele>
        <time>2017-10-15T13:28:15Z</time>
      </trkpt>
      <trkpt lat="44.63788" lon="-0.08816">
        <ele>21.1515</ele>
        <time>2017-10-15T13:28:21Z</time>
      </trkpt>
      <trkpt lat="44.63787" lon="-0.08803">
        <ele>20.951473333333</ele>
        <time>2017-10-15T13:28:29Z</time>
      </trkpt>
      <trkpt lat="44.63788" lon="-0.08792">
        <ele>20.851506666667</ele>
        <time>2017-10-15T13:28:37Z</time>
      </trkpt>
      <trkpt lat="44.63789" lon="-0.08781">
        <ele>19.95154</ele>
        <time>2017-10-15T13:28:44Z</time>
      </trkpt>
      <trkpt lat="44.63789" lon="-0.08769">
        <ele>19.051573333333</ele>
        <time>2017-10-15T13:28:52Z</time>
      </trkpt>
      <trkpt lat="44.6379" lon="-0.08758">
        <ele>19.7516</ele>
        <time>2017-10-15T13:28:58Z</time>
      </trkpt>
      <trkpt lat="44.63789" lon="-0.08747">
        <ele>20.151546666667</ele>
        <time>2017-10-15T13:29:03Z</time>
      </trkpt>
      <trkpt lat="44.63788" lon="-0.08736">
        <ele>18.551506666667</ele>
        <time>2017-10-15T13:29:10Z</time>
      </trkpt>
      <trkpt lat="44.63786" lon="-0.08725">
        <ele>18.351453333333</ele>
        <time>2017-10-15T13:29:15Z</time>
      </trkpt>
      <trkpt lat="44.63785" lon="-0.08713">
        <ele>17.951413333333</ele>
        <time>2017-10-15T13:29:21Z</time>
      </trkpt>
      <trkpt lat="44.63787" lon="-0.08701">
        <ele>17.551486666667</ele>
        <time>2017-10-15T13:29:28Z</time>
      </trkpt>
      <trkpt lat="44.63789" lon="-0.0869">
        <ele>16.651566666667</ele>
        <time>2017-10-15T13:29:35Z</time>
      </trkpt>
      <trkpt lat="44.63788" lon="-0.08678">
        <ele>17.551526666667</ele>
        <time>2017-10-15T13:29:42Z</time>
      </trkpt>
      <trkpt lat="44.63789" lon="-0.08666">
        <ele>15.051573333333</ele>
        <time>2017-10-15T13:29:49Z</time>
      </trkpt>
      <trkpt lat="44.63789" lon="-0.08654">
        <ele>16.15156</ele>
        <time>2017-10-15T13:29:58Z</time>
      </trkpt>
      <trkpt lat="44.63789" lon="-0.08643">
        <ele>14.85156</ele>
        <time>2017-10-15T13:30:05Z</time>
      </trkpt>
      <trkpt lat="44.63789" lon="-0.08632">
        <ele>15.851566666667</ele>
        <time>2017-10-15T13:30:12Z</time>
      </trkpt>
      <trkpt lat="44.6379" lon="-0.08621">
        <ele>15.0516</ele>
        <time>2017-10-15T13:30:19Z</time>
      </trkpt>
      <trkpt lat="44.6379" lon="-0.08608">
        <ele>12.551613333333</ele>
        <time>2017-10-15T13:30:28Z</time>
      </trkpt>
      <trkpt lat="44.63793" lon="-0.08597">
        <ele>11.951726666667</ele>
        <time>2017-10-15T13:30:36Z</time>
      </trkpt>
      <trkpt lat="44.63793" lon="-0.08585">
        <ele>13.351733333333</ele>
        <time>2017-10-15T13:30:42Z</time>
      </trkpt>
      <trkpt lat="44.63795" lon="-0.08573">
        <ele>15.351806666667</ele>
        <time>2017-10-15T13:30:49Z</time>
      </trkpt>
      <trkpt lat="44.63797" lon="-0.08562">
        <ele>15.351866666667</ele>
        <time>2017-10-15T13:30:54Z</time>
      </trkpt>
      <trkpt lat="44.63798" lon="-0.0855">
        <ele>13.651913333333</ele>
        <time>2017-10-15T13:31:00Z</time>
      </trkpt>
      <trkpt lat="44.63799" lon="-0.08539">
        <ele>16.95196</ele>
        <time>2017-10-15T13:31:06Z</time>
      </trkpt>
      <trkpt lat="44.63801" lon="-0.08529">
        <ele>19.852046666667</ele>
        <time>2017-10-15T13:31:12Z</time>
      </trkpt>
      <trkpt lat="44.63803" lon="-0.08516">
        <ele>15.652113333333</ele>
        <time>2017-10-15T13:31:17Z</time>
      </trkpt>
      <trkpt lat="44.63804" lon="-0.08505">
        <ele>17.65214</ele>
        <time>2017-10-15T13:31:24Z</time>
      </trkpt>
      <trkpt lat="44.63805" lon="-0.08494">
        <ele>25.952213333333</ele>
        <time>2017-10-15T13:31:34Z</time>
      </trkpt>
      <trkpt lat="44.63808" lon="-0.08482">
        <ele>24.552326666667</ele>
        <time>2017-10-15T13:31:51Z</time>
      </trkpt>
      <trkpt lat="44.63817" lon="-0.08482">
        <ele>24.45266</ele>
        <time>2017-10-15T13:32:00Z</time>
      </trkpt>
      <trkpt lat="44.63825" lon="-0.08487">
        <ele>24.05298</ele>
        <time>2017-10-15T13:32:08Z</time>
      </trkpt>
      <trkpt lat="44.63832" lon="-0.08492">
        <ele>24.153293333333</ele>
        <time>2017-10-15T13:32:21Z</time>
      </trkpt>
      <trkpt lat="44.6384" lon="-0.08498">
        <ele>22.353606666667</ele>
        <time>2017-10-15T13:32:29Z</time>
      </trkpt>
      <trkpt lat="44.63848" lon="-0.08501">
        <ele>20.85392</ele>
        <time>2017-10-15T13:32:37Z</time>
      </trkpt>
      <trkpt lat="44.63857" lon="-0.085">
        <ele>17.254266666667</ele>
        <time>2017-10-15T13:32:44Z</time>
      </trkpt>
      <trkpt lat="44.63864" lon="-0.08505">
        <ele>17.054573333333</ele>
        <time>2017-10-15T13:32:54Z</time>
      </trkpt>
      <trkpt lat="44.63871" lon="-0.08513">
        <ele>16.154846666667</ele>
        <time>2017-10-15T13:33:05Z</time>
      </trkpt>
      <trkpt lat="44.63878" lon="-0.08519">
        <ele>16.95512</ele>
        <time>2017-10-15T13:33:13Z</time>
      </trkpt>
      <trkpt lat="44.63886" lon="-0.08523">
        <ele>17.355453333333</ele>
        <time>2017-10-15T13:33:20Z</time>
      </trkpt>
      <trkpt lat="44.63894" lon="-0.08528">
        <ele>17.255773333333</ele>
        <time>2017-10-15T13:33:26Z</time>
      </trkpt>
      <trkpt lat="44.63902" lon="-0.0853">
        <ele>18.656093333333</ele>
        <time>2017-10-15T13:33:31Z</time>
      </trkpt>
      <trkpt lat="44.6391" lon="-0.08532">
        <ele>20.75638</ele>
        <time>2017-10-15T13:33:37Z</time>
      </trkpt>
      <trkpt lat="44.63918" lon="-0.08537">
        <ele>19.256713333333</ele>
        <time>2017-10-15T13:33:44Z</time>
      </trkpt>
      <trkpt lat="44.63925" lon="-0.08541">
        <ele>19.857006666667</ele>
        <time>2017-10-15T13:33:50Z</time>
      </trkpt>
      <trkpt lat="44.63934" lon="-0.08542">
        <ele>21.75734</ele>
        <time>2017-10-15T13:33:56Z</time>
      </trkpt>
      <trkpt lat="44.63942" lon="-0.08544">
        <ele>20.75766</ele>
        <time>2017-10-15T13:34:03Z</time>
      </trkpt>
      <trkpt lat="44.63949" lon="-0.08548">
        <ele>21.357946666667</ele>
        <time>2017-10-15T13:34:09Z</time>
      </trkpt>
      <trkpt lat="44.63957" lon="-0.08552">
        <ele>23.05826</ele>
        <time>2017-10-15T13:34:16Z</time>
      </trkpt>
      <trkpt lat="44.63965" lon="-0.08557">
        <ele>23.45858</ele>
        <time>2017-10-15T13:34:25Z</time>
      </trkpt>
      <trkpt lat="44.63971" lon="-0.08564">
        <ele>22.458853333333</ele>
        <time>2017-10-15T13:34:34Z</time>
      </trkpt>
      <trkpt lat="44.63978" lon="-0.08571">
        <ele>19.259113333333</ele>
        <time>2017-10-15T13:34:42Z</time>
      </trkpt>
      <trkpt lat="44.63986" lon="-0.08574">
        <ele>21.459446666667</ele>
        <time>2017-10-15T13:34:50Z</time>
      </trkpt>
      <trkpt lat="44.63994" lon="-0.08577">
        <ele>20.159753333333</ele>
        <time>2017-10-15T13:34:57Z</time>
      </trkpt>
      <trkpt lat="44.64002" lon="-0.08582">
        <ele>21.060073333333</ele>
        <time>2017-10-15T13:35:06Z</time>
      </trkpt>
      <trkpt lat="44.64009" lon="-0.08586">
        <ele>19.660373333333</ele>
        <time>2017-10-15T13:35:15Z</time>
      </trkpt>
      <trkpt lat="44.64018" lon="-0.08591">
        <ele>20.1607</ele>
        <time>2017-10-15T13:35:22Z</time>
      </trkpt>
      <trkpt lat="44.64022" lon="-0.08602">
        <ele>17.56086</ele>
        <time>2017-10-15T13:35:35Z</time>
      </trkpt>
      <trkpt lat="44.64029" lon="-0.08606">
        <ele>19.261166666667</ele>
        <time>2017-10-15T13:35:42Z</time>
      </trkpt>
      <trkpt lat="44.64038" lon="-0.08609">
        <ele>20.161506666667</ele>
        <time>2017-10-15T13:35:48Z</time>
      </trkpt>
      <trkpt lat="44.64046" lon="-0.08614">
        <ele>20.96182</ele>
        <time>2017-10-15T13:35:55Z</time>
      </trkpt>
      <trkpt lat="44.64051" lon="-0.08621">
        <ele>16.362053333333</ele>
        <time>2017-10-15T13:36:04Z</time>
      </trkpt>
      <trkpt lat="44.6406" lon="-0.08625">
        <ele>15.962393333333</ele>
        <time>2017-10-15T13:36:10Z</time>
      </trkpt>
      <trkpt lat="44.64068" lon="-0.08627">
        <ele>15.86272</ele>
        <time>2017-10-15T13:36:16Z</time>
      </trkpt>
      <trkpt lat="44.64076" lon="-0.08631">
        <ele>17.763033333333</ele>
        <time>2017-10-15T13:36:24Z</time>
      </trkpt>
      <trkpt lat="44.64084" lon="-0.08636">
        <ele>20.563346666667</ele>
        <time>2017-10-15T13:36:32Z</time>
      </trkpt>
      <trkpt lat="44.64091" lon="-0.0864">
        <ele>20.663653333333</ele>
        <time>2017-10-15T13:36:41Z</time>
      </trkpt>
      <trkpt lat="44.641" lon="-0.08643">
        <ele>22.963986666667</ele>
        <time>2017-10-15T13:36:47Z</time>
      </trkpt>
      <trkpt lat="44.64108" lon="-0.08646">
        <ele>24.964306666667</ele>
        <time>2017-10-15T13:36:53Z</time>
      </trkpt>
      <trkpt lat="44.64117" lon="-0.08645">
        <ele>23.96466</ele>
        <time>2017-10-15T13:37:01Z</time>
      </trkpt>
      <trkpt lat="44.64121" lon="-0.08636">
        <ele>32.264853333333</ele>
        <time>2017-10-15T13:38:00Z</time>
      </trkpt>
      <trkpt lat="44.64124" lon="-0.08625">
        <ele>30.36496</ele>
        <time>2017-10-15T13:38:08Z</time>
      </trkpt>
      <trkpt lat="44.64127" lon="-0.08615">
        <ele>26.96508</ele>
        <time>2017-10-15T13:38:16Z</time>
      </trkpt>
      <trkpt lat="44.64133" lon="-0.08608">
        <ele>24.865326666667</ele>
        <time>2017-10-15T13:38:24Z</time>
      </trkpt>
      <trkpt lat="44.64137" lon="-0.08596">
        <ele>25.165473333333</ele>
        <time>2017-10-15T13:38:33Z</time>
      </trkpt>
      <trkpt lat="44.6414" lon="-0.08585">
        <ele>26.165613333333</ele>
        <time>2017-10-15T13:38:41Z</time>
      </trkpt>
      <trkpt lat="44.64145" lon="-0.08574">
        <ele>28.365786666667</ele>
        <time>2017-10-15T13:38:53Z</time>
      </trkpt>
      <trkpt lat="44.64148" lon="-0.08563">
        <ele>30.6659</ele>
        <time>2017-10-15T13:39:00Z</time>
      </trkpt>
      <trkpt lat="44.6415" lon="-0.08553">
        <ele>30.766</ele>
        <time>2017-10-15T13:39:06Z</time>
      </trkpt>
      <trkpt lat="44.64152" lon="-0.08542">
        <ele>31.866073333333</ele>
        <time>2017-10-15T13:39:13Z</time>
      </trkpt>
      <trkpt lat="44.64154" lon="-0.08531">
        <ele>31.066153333333</ele>
        <time>2017-10-15T13:39:19Z</time>
      </trkpt>
      <trkpt lat="44.64155" lon="-0.0852">
        <ele>31.466193333333</ele>
        <time>2017-10-15T13:39:26Z</time>
      </trkpt>
      <trkpt lat="44.64158" lon="-0.08511">
        <ele>30.366333333333</ele>
        <time>2017-10-15T13:39:35Z</time>
      </trkpt>
      <trkpt lat="44.64161" lon="-0.085">
        <ele>26.966453333333</ele>
        <time>2017-10-15T13:39:42Z</time>
      </trkpt>
      <trkpt lat="44.64165" lon="-0.08489">
        <ele>25.566593333333</ele>
        <time>2017-10-15T13:39:49Z</time>
      </trkpt>
      <trkpt lat="44.64169" lon="-0.08482">
        <ele>24.466773333333</ele>
        <time>2017-10-15T13:39:54Z</time>
      </trkpt>
      <trkpt lat="44.64176" lon="-0.08475">
        <ele>19.667053333333</ele>
        <time>2017-10-15T13:40:04Z</time>
      </trkpt>
      <trkpt lat="44.6418" lon="-0.08466">
        <ele>18.467213333333</ele>
        <time>2017-10-15T13:40:12Z</time>
      </trkpt>
      <trkpt lat="44.64184" lon="-0.08455">
        <ele>21.567353333333</ele>
        <time>2017-10-15T13:40:18Z</time>
      </trkpt>
      <trkpt lat="44.64187" lon="-0.08443">
        <ele>23.867466666667</ele>
        <time>2017-10-15T13:40:26Z</time>
      </trkpt>
      <trkpt lat="44.6419" lon="-0.08432">
        <ele>23.1676</ele>
        <time>2017-10-15T13:40:34Z</time>
      </trkpt>
      <trkpt lat="44.64195" lon="-0.08422">
        <ele>22.467786666667</ele>
        <time>2017-10-15T13:40:41Z</time>
      </trkpt>
      <trkpt lat="44.64196" lon="-0.0841">
        <ele>20.767846666667</ele>
        <time>2017-10-15T13:40:48Z</time>
      </trkpt>
      <trkpt lat="44.642" lon="-0.084">
        <ele>19.668</ele>
        <time>2017-10-15T13:40:56Z</time>
      </trkpt>
      <trkpt lat="44.64202" lon="-0.08388">
        <ele>20.068093333333</ele>
        <time>2017-10-15T13:41:04Z</time>
      </trkpt>
      <trkpt lat="44.64202" lon="-0.08376">
        <ele>18.168093333333</ele>
        <time>2017-10-15T13:41:12Z</time>
      </trkpt>
      <trkpt lat="44.64204" lon="-0.08364">
        <ele>16.26816</ele>
        <time>2017-10-15T13:41:20Z</time>
      </trkpt>
      <trkpt lat="44.6421" lon="-0.08355">
        <ele>18.76838</ele>
        <time>2017-10-15T13:41:27Z</time>
      </trkpt>
      <trkpt lat="44.64214" lon="-0.08346">
        <ele>22.268573333333</ele>
        <time>2017-10-15T13:41:34Z</time>
      </trkpt>
      <trkpt lat="44.64219" lon="-0.08337">
        <ele>10.768766666667</ele>
        <time>2017-10-15T13:41:50Z</time>
      </trkpt>
      <trkpt lat="44.64222" lon="-0.08327">
        <ele>9.2688666666667</ele>
        <time>2017-10-15T13:41:56Z</time>
      </trkpt>
      <trkpt lat="44.64223" lon="-0.08315">
        <ele>11.268933333333</ele>
        <time>2017-10-15T13:42:01Z</time>
      </trkpt>
      <trkpt lat="44.64227" lon="-0.08305">
        <ele>11.869073333333</ele>
        <time>2017-10-15T13:42:07Z</time>
      </trkpt>
      <trkpt lat="44.64229" lon="-0.08293">
        <ele>13.46916</ele>
        <time>2017-10-15T13:42:12Z</time>
      </trkpt>
      <trkpt lat="44.64233" lon="-0.08282">
        <ele>16.769313333333</ele>
        <time>2017-10-15T13:42:17Z</time>
      </trkpt>
      <trkpt lat="44.64236" lon="-0.08271">
        <ele>19.06944</ele>
        <time>2017-10-15T13:42:24Z</time>
      </trkpt>
      <trkpt lat="44.6424" lon="-0.08261">
        <ele>17.4696</ele>
        <time>2017-10-15T13:42:31Z</time>
      </trkpt>
      <trkpt lat="44.64244" lon="-0.0825">
        <ele>17.96974</ele>
        <time>2017-10-15T13:42:38Z</time>
      </trkpt>
      <trkpt lat="44.64246" lon="-0.08238">
        <ele>19.769833333333</ele>
        <time>2017-10-15T13:42:45Z</time>
      </trkpt>
      <trkpt lat="44.64249" lon="-0.08227">
        <ele>16.869946666667</ele>
        <time>2017-10-15T13:42:56Z</time>
      </trkpt>
      <trkpt lat="44.64253" lon="-0.08217">
        <ele>12.070133333333</ele>
        <time>2017-10-15T13:43:05Z</time>
      </trkpt>
      <trkpt lat="44.64256" lon="-0.08205">
        <ele>12.170253333333</ele>
        <time>2017-10-15T13:43:14Z</time>
      </trkpt>
      <trkpt lat="44.64259" lon="-0.08194">
        <ele>15.670346666667</ele>
        <time>2017-10-15T13:43:22Z</time>
      </trkpt>
      <trkpt lat="44.6426" lon="-0.08182">
        <ele>16.270393333333</ele>
        <time>2017-10-15T13:43:29Z</time>
      </trkpt>
      <trkpt lat="44.64262" lon="-0.08172">
        <ele>16.670486666667</ele>
        <time>2017-10-15T13:43:35Z</time>
      </trkpt>
      <trkpt lat="44.64265" lon="-0.0816">
        <ele>17.970593333333</ele>
        <time>2017-10-15T13:43:41Z</time>
      </trkpt>
      <trkpt lat="44.64269" lon="-0.08149">
        <ele>18.570773333333</ele>
        <time>2017-10-15T13:43:48Z</time>
      </trkpt>
      <trkpt lat="44.64274" lon="-0.08139">
        <ele>17.270953333333</ele>
        <time>2017-10-15T13:43:55Z</time>
      </trkpt>
      <trkpt lat="44.64277" lon="-0.08128">
        <ele>19.571093333333</ele>
        <time>2017-10-15T13:44:01Z</time>
      </trkpt>
      <trkpt lat="44.6428" lon="-0.08116">
        <ele>18.971193333333</ele>
        <time>2017-10-15T13:44:07Z</time>
      </trkpt>
      <trkpt lat="44.64285" lon="-0.08106">
        <ele>19.571413333333</ele>
        <time>2017-10-15T13:44:15Z</time>
      </trkpt>
      <trkpt lat="44.64287" lon="-0.08095">
        <ele>20.671493333333</ele>
        <time>2017-10-15T13:44:23Z</time>
      </trkpt>
      <trkpt lat="44.64293" lon="-0.08085">
        <ele>9.9717</ele>
        <time>2017-10-15T13:44:31Z</time>
      </trkpt>
      <trkpt lat="44.64294" lon="-0.08074">
        <ele>0.67174000000001</ele>
        <time>2017-10-15T13:44:37Z</time>
      </trkpt>
      <trkpt lat="44.64291" lon="-0.08063">
        <ele>-3.7283666666667</ele>
        <time>2017-10-15T13:44:42Z</time>
      </trkpt>
      <trkpt lat="44.64286" lon="-0.08053">
        <ele>-1.6285666666667</ele>
        <time>2017-10-15T13:44:49Z</time>
      </trkpt>
      <trkpt lat="44.6428" lon="-0.08044">
        <ele>-1.9287866666667</ele>
        <time>2017-10-15T13:44:56Z</time>
      </trkpt>
      <trkpt lat="44.64276" lon="-0.08034">
        <ele>-0.82896666666669</ele>
        <time>2017-10-15T13:45:02Z</time>
      </trkpt>
      <trkpt lat="44.64271" lon="-0.08023">
        <ele>0.47082666666665</ele>
        <time>2017-10-15T13:45:09Z</time>
      </trkpt>
      <trkpt lat="44.64265" lon="-0.08016">
        <ele>0.57059333333333</ele>
        <time>2017-10-15T13:45:16Z</time>
      </trkpt>
      <trkpt lat="44.64258" lon="-0.08008">
        <ele>4.2703333333334</ele>
        <time>2017-10-15T13:45:22Z</time>
      </trkpt>
      <trkpt lat="44.64253" lon="-0.07999">
        <ele>10.87012</ele>
        <time>2017-10-15T13:45:28Z</time>
      </trkpt>
      <trkpt lat="44.64247" lon="-0.07991">
        <ele>13.869873333333</ele>
        <time>2017-10-15T13:45:33Z</time>
      </trkpt>
      <trkpt lat="44.64242" lon="-0.07983">
        <ele>11.76968</ele>
        <time>2017-10-15T13:45:39Z</time>
      </trkpt>
      <trkpt lat="44.64236" lon="-0.07976">
        <ele>14.569446666667</ele>
        <time>2017-10-15T13:45:45Z</time>
      </trkpt>
      <trkpt lat="44.6423" lon="-0.07968">
        <ele>16.269193333333</ele>
        <time>2017-10-15T13:45:51Z</time>
      </trkpt>
      <trkpt lat="44.64224" lon="-0.07959">
        <ele>19.868946666667</ele>
        <time>2017-10-15T13:46:00Z</time>
      </trkpt>
      <trkpt lat="44.64218" lon="-0.07952">
        <ele>18.568713333333</ele>
        <time>2017-10-15T13:46:06Z</time>
      </trkpt>
      <trkpt lat="44.64215" lon="-0.07941">
        <ele>16.768593333333</ele>
        <time>2017-10-15T13:46:13Z</time>
      </trkpt>
      <trkpt lat="44.64211" lon="-0.07932">
        <ele>14.26842</ele>
        <time>2017-10-15T13:46:20Z</time>
      </trkpt>
      <trkpt lat="44.64207" lon="-0.07921">
        <ele>10.66828</ele>
        <time>2017-10-15T13:46:30Z</time>
      </trkpt>
      <trkpt lat="44.64208" lon="-0.07909">
        <ele>9.2683333333333</ele>
        <time>2017-10-15T13:46:39Z</time>
      </trkpt>
      <trkpt lat="44.64209" lon="-0.07898">
        <ele>8.2683666666667</ele>
        <time>2017-10-15T13:46:47Z</time>
      </trkpt>
      <trkpt lat="44.64208" lon="-0.07886">
        <ele>6.1683266666667</ele>
        <time>2017-10-15T13:46:55Z</time>
      </trkpt>
      <trkpt lat="44.64209" lon="-0.07874">
        <ele>4.0683533333334</ele>
        <time>2017-10-15T13:47:02Z</time>
      </trkpt>
      <trkpt lat="44.6421" lon="-0.07862">
        <ele>5.2683933333333</ele>
        <time>2017-10-15T13:47:08Z</time>
      </trkpt>
      <trkpt lat="44.64211" lon="-0.0785">
        <ele>-0.23157999999997</ele>
        <time>2017-10-15T13:47:16Z</time>
      </trkpt>
      <trkpt lat="44.64207" lon="-0.07839">
        <ele>-0.43171333333333</ele>
        <time>2017-10-15T13:47:23Z</time>
      </trkpt>
      <trkpt lat="44.64208" lon="-0.07828">
        <ele>-5.6316933333334</ele>
        <time>2017-10-15T13:47:32Z</time>
      </trkpt>
      <trkpt lat="44.6421" lon="-0.07816">
        <ele>-1.53162</ele>
        <time>2017-10-15T13:47:38Z</time>
      </trkpt>
      <trkpt lat="44.64212" lon="-0.07805">
        <ele>-5.3315333333333</ele>
        <time>2017-10-15T13:47:44Z</time>
      </trkpt>
      <trkpt lat="44.64213" lon="-0.07794">
        <ele>-2.83148</ele>
        <time>2017-10-15T13:47:50Z</time>
      </trkpt>
      <trkpt lat="44.64212" lon="-0.07784">
        <ele>-1.6315266666667</ele>
        <time>2017-10-15T13:47:56Z</time>
      </trkpt>
      <trkpt lat="44.64216" lon="-0.07776">
        <ele>-5.0313733333333</ele>
        <time>2017-10-15T13:48:00Z</time>
      </trkpt>
      <trkpt lat="44.64218" lon="-0.07764">
        <ele>-6.63128</ele>
        <time>2017-10-15T13:48:06Z</time>
      </trkpt>
      <trkpt lat="44.64221" lon="-0.07753">
        <ele>-4.3311733333333</ele>
        <time>2017-10-15T13:48:23Z</time>
      </trkpt>
      <trkpt lat="44.64227" lon="-0.07745">
        <ele>-9.23092</ele>
        <time>2017-10-15T13:48:34Z</time>
      </trkpt>
      <trkpt lat="44.64231" lon="-0.07734">
        <ele>-9.93078</ele>
        <time>2017-10-15T13:48:43Z</time>
      </trkpt>
      <trkpt lat="44.64239" lon="-0.0773">
        <ele>-20.13044</ele>
        <time>2017-10-15T13:48:55Z</time>
      </trkpt>
      <trkpt lat="44.64244" lon="-0.07721">
        <ele>-19.630246666667</ele>
        <time>2017-10-15T13:49:02Z</time>
      </trkpt>
      <trkpt lat="44.64245" lon="-0.07711">
        <ele>-16.730206666667</ele>
        <time>2017-10-15T13:49:06Z</time>
      </trkpt>
      <trkpt lat="44.64247" lon="-0.077">
        <ele>-14.53012</ele>
        <time>2017-10-15T13:49:11Z</time>
      </trkpt>
      <trkpt lat="44.64251" lon="-0.0769">
        <ele>-16.32998</ele>
        <time>2017-10-15T13:49:18Z</time>
      </trkpt>
      <trkpt lat="44.64254" lon="-0.07679">
        <ele>-15.329853333333</ele>
        <time>2017-10-15T13:49:24Z</time>
      </trkpt>
      <trkpt lat="44.64254" lon="-0.07669">
        <ele>-15.02984</ele>
        <time>2017-10-15T13:49:28Z</time>
      </trkpt>
      <trkpt lat="44.64255" lon="-0.07657">
        <ele>-12.829793333333</ele>
        <time>2017-10-15T13:49:33Z</time>
      </trkpt>
      <trkpt lat="44.64257" lon="-0.07643">
        <ele>-7.6297333333333</ele>
        <time>2017-10-15T13:49:37Z</time>
      </trkpt>
      <trkpt lat="44.64257" lon="-0.07632">
        <ele>-6.2297333333333</ele>
        <time>2017-10-15T13:49:43Z</time>
      </trkpt>
      <trkpt lat="44.64257" lon="-0.07619">
        <ele>-1.32972</ele>
        <time>2017-10-15T13:49:48Z</time>
      </trkpt>
      <trkpt lat="44.64255" lon="-0.07607">
        <ele>5.1701866666667</ele>
        <time>2017-10-15T13:49:54Z</time>
      </trkpt>
      <trkpt lat="44.64251" lon="-0.07598">
        <ele>9.6700266666667</ele>
        <time>2017-10-15T13:50:00Z</time>
      </trkpt>
      <trkpt lat="44.64245" lon="-0.07589">
        <ele>11.669806666667</ele>
        <time>2017-10-15T13:50:06Z</time>
      </trkpt>
      <trkpt lat="44.64242" lon="-0.07577">
        <ele>6.06968</ele>
        <time>2017-10-15T13:50:11Z</time>
      </trkpt>
      <trkpt lat="44.64238" lon="-0.07567">
        <ele>6.7695133333333</ele>
        <time>2017-10-15T13:50:17Z</time>
      </trkpt>
      <trkpt lat="44.64237" lon="-0.07555">
        <ele>-0.6305333333333</ele>
        <time>2017-10-15T13:50:23Z</time>
      </trkpt>
      <trkpt lat="44.64234" lon="-0.07543">
        <ele>-12.230626666667</ele>
        <time>2017-10-15T13:50:31Z</time>
      </trkpt>
      <trkpt lat="44.64237" lon="-0.07533">
        <ele>-31.930506666667</ele>
        <time>2017-10-15T13:50:38Z</time>
      </trkpt>
      <trkpt lat="44.64238" lon="-0.07521">
        <ele>-49.330486666667</ele>
        <time>2017-10-15T13:50:44Z</time>
      </trkpt>
      <trkpt lat="44.6424" lon="-0.07509">
        <ele>-63.630386666667</ele>
        <time>2017-10-15T13:50:49Z</time>
      </trkpt>
      <trkpt lat="44.64236" lon="-0.075">
        <ele>-66.83056</ele>
        <time>2017-10-15T13:50:54Z</time>
      </trkpt>
      <trkpt lat="44.64231" lon="-0.07487">
        <ele>-69.330753333333</ele>
        <time>2017-10-15T13:50:59Z</time>
      </trkpt>
      <trkpt lat="44.64226" lon="-0.07478">
        <ele>-69.330973333333</ele>
        <time>2017-10-15T13:51:04Z</time>
      </trkpt>
      <trkpt lat="44.64222" lon="-0.07468">
        <ele>-73.731106666667</ele>
        <time>2017-10-15T13:51:12Z</time>
      </trkpt>
      <trkpt lat="44.64222" lon="-0.07456">
        <ele>-75.531106666667</ele>
        <time>2017-10-15T13:51:17Z</time>
      </trkpt>
      <trkpt lat="44.64223" lon="-0.0744">
        <ele>-85.331086666667</ele>
        <time>2017-10-15T13:51:22Z</time>
      </trkpt>
      <trkpt lat="44.64225" lon="-0.07425">
        <ele>-94.030993333333</ele>
        <time>2017-10-15T13:51:27Z</time>
      </trkpt>
      <trkpt lat="44.64219" lon="-0.0743">
        <ele>-104.03122666667</ele>
        <time>2017-10-15T13:51:31Z</time>
      </trkpt>
      <trkpt lat="44.64207" lon="-0.07437">
        <ele>-101.33170666667</ele>
        <time>2017-10-15T13:51:35Z</time>
      </trkpt>
      <trkpt lat="44.64195" lon="-0.07444">
        <ele>-94.932193333333</ele>
        <time>2017-10-15T13:51:39Z</time>
      </trkpt>
      <trkpt lat="44.64185" lon="-0.07452">
        <ele>-85.032593333333</ele>
        <time>2017-10-15T13:51:43Z</time>
      </trkpt>
      <trkpt lat="44.64175" lon="-0.07459">
        <ele>-71.933</ele>
        <time>2017-10-15T13:51:47Z</time>
      </trkpt>
      <trkpt lat="44.64165" lon="-0.07467">
        <ele>-58.833406666667</ele>
        <time>2017-10-15T13:51:51Z</time>
      </trkpt>
      <trkpt lat="44.64158" lon="-0.07471">
        <ele>-50.033673333333</ele>
        <time>2017-10-15T13:51:55Z</time>
      </trkpt>
      <trkpt lat="44.64151" lon="-0.07477">
        <ele>-40.93398</ele>
        <time>2017-10-15T13:51:59Z</time>
      </trkpt>
      <trkpt lat="44.64142" lon="-0.0748">
        <ele>-27.634326666667</ele>
        <time>2017-10-15T13:52:03Z</time>
      </trkpt>
      <trkpt lat="44.64134" lon="-0.07483">
        <ele>-18.734646666667</ele>
        <time>2017-10-15T13:52:07Z</time>
      </trkpt>
      <trkpt lat="44.64126" lon="-0.07485">
        <ele>-8.8349466666667</ele>
        <time>2017-10-15T13:52:12Z</time>
      </trkpt>
      <trkpt lat="44.64118" lon="-0.07489">
        <ele>-0.63528666666669</ele>
        <time>2017-10-15T13:52:17Z</time>
      </trkpt>
      <trkpt lat="44.64107" lon="-0.07492">
        <ele>7.7642933333333</ele>
        <time>2017-10-15T13:52:22Z</time>
      </trkpt>
      <trkpt lat="44.641" lon="-0.07495">
        <ele>12.864006666667</ele>
        <time>2017-10-15T13:52:27Z</time>
      </trkpt>
      <trkpt lat="44.64092" lon="-0.07497">
        <ele>16.363686666667</ele>
        <time>2017-10-15T13:52:33Z</time>
      </trkpt>
      <trkpt lat="44.64084" lon="-0.075">
        <ele>15.163366666667</ele>
        <time>2017-10-15T13:52:41Z</time>
      </trkpt>
      <trkpt lat="44.64077" lon="-0.07505">
        <ele>16.263066666667</ele>
        <time>2017-10-15T13:52:47Z</time>
      </trkpt>
      <trkpt lat="44.64068" lon="-0.07509">
        <ele>18.462713333333</ele>
        <time>2017-10-15T13:52:52Z</time>
      </trkpt>
      <trkpt lat="44.64061" lon="-0.07509">
        <ele>16.762433333333</ele>
        <time>2017-10-15T13:52:56Z</time>
      </trkpt>
      <trkpt lat="44.64052" lon="-0.07511">
        <ele>12.562086666667</ele>
        <time>2017-10-15T13:53:03Z</time>
      </trkpt>
      <trkpt lat="44.64044" lon="-0.07511">
        <ele>10.86174</ele>
        <time>2017-10-15T13:53:10Z</time>
      </trkpt>
      <trkpt lat="44.64036" lon="-0.07514">
        <ele>9.7614266666667</ele>
        <time>2017-10-15T13:53:16Z</time>
      </trkpt>
      <trkpt lat="44.64027" lon="-0.07515">
        <ele>9.0610733333334</ele>
        <time>2017-10-15T13:53:22Z</time>
      </trkpt>
      <trkpt lat="44.64019" lon="-0.07517">
        <ele>6.7607666666667</ele>
        <time>2017-10-15T13:53:28Z</time>
      </trkpt>
      <trkpt lat="44.64011" lon="-0.07519">
        <ele>6.5604333333333</ele>
        <time>2017-10-15T13:53:34Z</time>
      </trkpt>
      <trkpt lat="44.64003" lon="-0.0752">
        <ele>7.66012</ele>
        <time>2017-10-15T13:53:40Z</time>
      </trkpt>
      <trkpt lat="44.63995" lon="-0.0752">
        <ele>5.45978</ele>
        <time>2017-10-15T13:53:48Z</time>
      </trkpt>
      <trkpt lat="44.63986" lon="-0.07521">
        <ele>3.5594466666667</ele>
        <time>2017-10-15T13:53:54Z</time>
      </trkpt>
      <trkpt lat="44.63978" lon="-0.07521">
        <ele>1.95912</ele>
        <time>2017-10-15T13:54:01Z</time>
      </trkpt>
      <trkpt lat="44.6397" lon="-0.07522">
        <ele>0.058793333333341</ele>
        <time>2017-10-15T13:54:06Z</time>
      </trkpt>
      <trkpt lat="44.63962" lon="-0.07523">
        <ele>1.1584666666667</ele>
        <time>2017-10-15T13:54:13Z</time>
      </trkpt>
      <trkpt lat="44.63954" lon="-0.0752">
        <ele>6.05816</ele>
        <time>2017-10-15T13:54:24Z</time>
      </trkpt>
      <trkpt lat="44.63953" lon="-0.07509">
        <ele>-4.3418866666667</ele>
        <time>2017-10-15T13:54:33Z</time>
      </trkpt>
      <trkpt lat="44.63953" lon="-0.07497">
        <ele>-22.641866666667</ele>
        <time>2017-10-15T13:54:39Z</time>
      </trkpt>
      <trkpt lat="44.63953" lon="-0.07486">
        <ele>-34.541886666667</ele>
        <time>2017-10-15T13:54:44Z</time>
      </trkpt>
      <trkpt lat="44.63952" lon="-0.07474">
        <ele>-56.24192</ele>
        <time>2017-10-15T13:54:52Z</time>
      </trkpt>
      <trkpt lat="44.63946" lon="-0.07467">
        <ele>-63.74216</ele>
        <time>2017-10-15T13:54:58Z</time>
      </trkpt>
      <trkpt lat="44.63939" lon="-0.07462">
        <ele>-69.742453333333</ele>
        <time>2017-10-15T13:55:04Z</time>
      </trkpt>
      <trkpt lat="44.63931" lon="-0.07461">
        <ele>-66.54278</ele>
        <time>2017-10-15T13:55:12Z</time>
      </trkpt>
      <trkpt lat="44.63922" lon="-0.0746">
        <ele>-65.043133333333</ele>
        <time>2017-10-15T13:55:20Z</time>
      </trkpt>
      <trkpt lat="44.63915" lon="-0.07462">
        <ele>-61.743406666667</ele>
        <time>2017-10-15T13:55:24Z</time>
      </trkpt>
      <trkpt lat="44.63902" lon="-0.07469">
        <ele>-47.14392</ele>
        <time>2017-10-15T13:55:29Z</time>
      </trkpt>
      <trkpt lat="44.63893" lon="-0.07472">
        <ele>-38.44428</ele>
        <time>2017-10-15T13:55:33Z</time>
      </trkpt>
      <trkpt lat="44.6388" lon="-0.0748">
        <ele>-30.644786666667</ele>
        <time>2017-10-15T13:55:38Z</time>
      </trkpt>
      <trkpt lat="44.63873" lon="-0.07477">
        <ele>-24.745073333333</ele>
        <time>2017-10-15T13:55:42Z</time>
      </trkpt>
      <trkpt lat="44.63867" lon="-0.0747">
        <ele>-17.245313333333</ele>
        <time>2017-10-15T13:55:47Z</time>
      </trkpt>
      <trkpt lat="44.63863" lon="-0.07459">
        <ele>-12.945473333333</ele>
        <time>2017-10-15T13:55:53Z</time>
      </trkpt>
      <trkpt lat="44.63861" lon="-0.07448">
        <ele>-11.545546666667</ele>
        <time>2017-10-15T13:56:00Z</time>
      </trkpt>
      <trkpt lat="44.63859" lon="-0.07437">
        <ele>-9.9456533333333</ele>
        <time>2017-10-15T13:56:08Z</time>
      </trkpt>
      <trkpt lat="44.63857" lon="-0.07427">
        <ele>-10.84572</ele>
        <time>2017-10-15T13:56:14Z</time>
      </trkpt>
      <trkpt lat="44.63855" lon="-0.07416">
        <ele>-11.445806666667</ele>
        <time>2017-10-15T13:56:19Z</time>
      </trkpt>
      <trkpt lat="44.63852" lon="-0.07406">
        <ele>-10.445906666667</ele>
        <time>2017-10-15T13:56:25Z</time>
      </trkpt>
      <trkpt lat="44.6385" lon="-0.07394">
        <ele>-9.6459866666667</ele>
        <time>2017-10-15T13:56:32Z</time>
      </trkpt>
      <trkpt lat="44.63849" lon="-0.07382">
        <ele>-7.94606</ele>
        <time>2017-10-15T13:56:38Z</time>
      </trkpt>
      <trkpt lat="44.63848" lon="-0.0737">
        <ele>-8.4460733333333</ele>
        <time>2017-10-15T13:56:46Z</time>
      </trkpt>
      <trkpt lat="44.63848" lon="-0.07358">
        <ele>-9.2460933333333</ele>
        <time>2017-10-15T13:56:54Z</time>
      </trkpt>
      <trkpt lat="44.63846" lon="-0.07347">
        <ele>-10.046146666667</ele>
        <time>2017-10-15T13:57:01Z</time>
      </trkpt>
      <trkpt lat="44.63845" lon="-0.07336">
        <ele>-8.5461866666666</ele>
        <time>2017-10-15T13:57:09Z</time>
      </trkpt>
      <trkpt lat="44.63838" lon="-0.07329">
        <ele>-6.3464666666667</ele>
        <time>2017-10-15T13:57:16Z</time>
      </trkpt>
      <trkpt lat="44.63832" lon="-0.07323">
        <ele>-5.1467333333333</ele>
        <time>2017-10-15T13:57:23Z</time>
      </trkpt>
      <trkpt lat="44.63826" lon="-0.07313">
        <ele>-2.5469466666667</ele>
        <time>2017-10-15T13:57:31Z</time>
      </trkpt>
      <trkpt lat="44.63822" lon="-0.07304">
        <ele>-4.44712</ele>
        <time>2017-10-15T13:57:37Z</time>
      </trkpt>
      <trkpt lat="44.63815" lon="-0.07297">
        <ele>-8.1473933333333</ele>
        <time>2017-10-15T13:57:43Z</time>
      </trkpt>
      <trkpt lat="44.63809" lon="-0.0729">
        <ele>-7.8476466666667</ele>
        <time>2017-10-15T13:57:49Z</time>
      </trkpt>
      <trkpt lat="44.63804" lon="-0.07281">
        <ele>-4.3478333333333</ele>
        <time>2017-10-15T13:57:58Z</time>
      </trkpt>
      <trkpt lat="44.63798" lon="-0.07272">
        <ele>-2.6480933333334</ele>
        <time>2017-10-15T13:58:06Z</time>
      </trkpt>
      <trkpt lat="44.63792" lon="-0.07263">
        <ele>-3.64832</ele>
        <time>2017-10-15T13:58:13Z</time>
      </trkpt>
      <trkpt lat="44.63785" lon="-0.07257">
        <ele>-4.9485933333333</ele>
        <time>2017-10-15T13:58:21Z</time>
      </trkpt>
      <trkpt lat="44.63778" lon="-0.07252">
        <ele>-4.6489</ele>
        <time>2017-10-15T13:58:29Z</time>
      </trkpt>
      <trkpt lat="44.63771" lon="-0.07247">
        <ele>-4.5491466666667</ele>
        <time>2017-10-15T13:58:36Z</time>
      </trkpt>
      <trkpt lat="44.63766" lon="-0.07238">
        <ele>-7.2493733333333</ele>
        <time>2017-10-15T13:58:43Z</time>
      </trkpt>
      <trkpt lat="44.6376" lon="-0.07229">
        <ele>-9.0496066666667</ele>
        <time>2017-10-15T13:58:51Z</time>
      </trkpt>
      <trkpt lat="44.63754" lon="-0.07219">
        <ele>-10.649826666667</ele>
        <time>2017-10-15T13:58:59Z</time>
      </trkpt>
      <trkpt lat="44.63747" lon="-0.07212">
        <ele>-6.9501066666666</ele>
        <time>2017-10-15T13:59:08Z</time>
      </trkpt>
      <trkpt lat="44.63739" lon="-0.0721">
        <ele>-4.4504466666667</ele>
        <time>2017-10-15T13:59:14Z</time>
      </trkpt>
      <trkpt lat="44.63732" lon="-0.07204">
        <ele>-2.55074</ele>
        <time>2017-10-15T13:59:20Z</time>
      </trkpt>
      <trkpt lat="44.63725" lon="-0.07199">
        <ele>-1.05102</ele>
        <time>2017-10-15T13:59:27Z</time>
      </trkpt>
      <trkpt lat="44.63718" lon="-0.07191">
        <ele>1.8487</ele>
        <time>2017-10-15T13:59:35Z</time>
      </trkpt>
      <trkpt lat="44.63711" lon="-0.07184">
        <ele>-1.35158</ele>
        <time>2017-10-15T13:59:42Z</time>
      </trkpt>
      <trkpt lat="44.63705" lon="-0.07175">
        <ele>-5.3518133333334</ele>
        <time>2017-10-15T13:59:50Z</time>
      </trkpt>
      <trkpt lat="44.63698" lon="-0.07168">
        <ele>-5.7520733333333</ele>
        <time>2017-10-15T13:59:58Z</time>
      </trkpt>
      <trkpt lat="44.63692" lon="-0.07161">
        <ele>-10.252326666667</ele>
        <time>2017-10-15T14:00:05Z</time>
      </trkpt>
      <trkpt lat="44.63685" lon="-0.07153">
        <ele>-13.752593333333</ele>
        <time>2017-10-15T14:00:13Z</time>
      </trkpt>
      <trkpt lat="44.6368" lon="-0.07145">
        <ele>-10.45282</ele>
        <time>2017-10-15T14:00:21Z</time>
      </trkpt>
      <trkpt lat="44.63675" lon="-0.07136">
        <ele>-13.552993333333</ele>
        <time>2017-10-15T14:00:28Z</time>
      </trkpt>
      <trkpt lat="44.63671" lon="-0.07126">
        <ele>-22.95318</ele>
        <time>2017-10-15T14:00:34Z</time>
      </trkpt>
      <trkpt lat="44.63666" lon="-0.07117">
        <ele>-22.253373333333</ele>
        <time>2017-10-15T14:00:41Z</time>
      </trkpt>
      <trkpt lat="44.6366" lon="-0.07108">
        <ele>-23.6536</ele>
        <time>2017-10-15T14:00:47Z</time>
      </trkpt>
      <trkpt lat="44.63655" lon="-0.071">
        <ele>-23.7538</ele>
        <time>2017-10-15T14:00:53Z</time>
      </trkpt>
      <trkpt lat="44.63649" lon="-0.07091">
        <ele>-24.45404</ele>
        <time>2017-10-15T14:00:59Z</time>
      </trkpt>
      <trkpt lat="44.63643" lon="-0.07083">
        <ele>-22.7543</ele>
        <time>2017-10-15T14:01:06Z</time>
      </trkpt>
      <trkpt lat="44.63638" lon="-0.07073">
        <ele>-17.354466666667</ele>
        <time>2017-10-15T14:01:13Z</time>
      </trkpt>
      <trkpt lat="44.63633" lon="-0.07064">
        <ele>-12.354673333333</ele>
        <time>2017-10-15T14:01:20Z</time>
      </trkpt>
      <trkpt lat="44.63628" lon="-0.07055">
        <ele>-17.054893333333</ele>
        <time>2017-10-15T14:01:28Z</time>
      </trkpt>
      <trkpt lat="44.63622" lon="-0.07045">
        <ele>-17.355113333333</ele>
        <time>2017-10-15T14:01:37Z</time>
      </trkpt>
      <trkpt lat="44.63616" lon="-0.07038">
        <ele>-13.25538</ele>
        <time>2017-10-15T14:01:44Z</time>
      </trkpt>
      <trkpt lat="44.63611" lon="-0.07028">
        <ele>-10.555573333333</ele>
        <time>2017-10-15T14:01:52Z</time>
      </trkpt>
      <trkpt lat="44.63604" lon="-0.0702">
        <ele>-9.95584</ele>
        <time>2017-10-15T14:01:59Z</time>
      </trkpt>
      <trkpt lat="44.63597" lon="-0.07014">
        <ele>-9.0561066666666</ele>
        <time>2017-10-15T14:02:06Z</time>
      </trkpt>
      <trkpt lat="44.63591" lon="-0.07008">
        <ele>-7.3563733333333</ele>
        <time>2017-10-15T14:02:12Z</time>
      </trkpt>
      <trkpt lat="44.63584" lon="-0.07001">
        <ele>-4.0566533333333</ele>
        <time>2017-10-15T14:02:19Z</time>
      </trkpt>
      <trkpt lat="44.63576" lon="-0.06995">
        <ele>-1.0569533333333</ele>
        <time>2017-10-15T14:02:26Z</time>
      </trkpt>
      <trkpt lat="44.63569" lon="-0.06987">
        <ele>1.2427666666666</ele>
        <time>2017-10-15T14:02:34Z</time>
      </trkpt>
      <trkpt lat="44.63563" lon="-0.06978">
        <ele>5.0425266666666</ele>
        <time>2017-10-15T14:02:41Z</time>
      </trkpt>
      <trkpt lat="44.63557" lon="-0.0697">
        <ele>1.74228</ele>
        <time>2017-10-15T14:02:50Z</time>
      </trkpt>
      <trkpt lat="44.63556" lon="-0.06958">
        <ele>-9.25776</ele>
        <time>2017-10-15T14:02:56Z</time>
      </trkpt>
      <trkpt lat="44.63549" lon="-0.06952">
        <ele>-13.75804</ele>
        <time>2017-10-15T14:03:03Z</time>
      </trkpt>
      <trkpt lat="44.63542" lon="-0.06944">
        <ele>-15.658306666667</ele>
        <time>2017-10-15T14:03:09Z</time>
      </trkpt>
      <trkpt lat="44.63537" lon="-0.06936">
        <ele>-14.95854</ele>
        <time>2017-10-15T14:03:15Z</time>
      </trkpt>
      <trkpt lat="44.63531" lon="-0.06928">
        <ele>-13.958753333333</ele>
        <time>2017-10-15T14:03:22Z</time>
      </trkpt>
      <trkpt lat="44.63525" lon="-0.06921">
        <ele>-11.659006666667</ele>
        <time>2017-10-15T14:03:29Z</time>
      </trkpt>
      <trkpt lat="44.63519" lon="-0.06912">
        <ele>-10.559253333333</ele>
        <time>2017-10-15T14:03:39Z</time>
      </trkpt>
      <trkpt lat="44.63514" lon="-0.06902">
        <ele>-9.65946</ele>
        <time>2017-10-15T14:03:48Z</time>
      </trkpt>
      <trkpt lat="44.63509" lon="-0.06893">
        <ele>-10.05966</ele>
        <time>2017-10-15T14:03:55Z</time>
      </trkpt>
      <trkpt lat="44.63502" lon="-0.06886">
        <ele>-8.55992</ele>
        <time>2017-10-15T14:04:01Z</time>
      </trkpt>
      <trkpt lat="44.63496" lon="-0.06879">
        <ele>-9.8601666666667</ele>
        <time>2017-10-15T14:04:08Z</time>
      </trkpt>
      <trkpt lat="44.6349" lon="-0.06871">
        <ele>-10.160406666667</ele>
        <time>2017-10-15T14:04:15Z</time>
      </trkpt>
      <trkpt lat="44.63484" lon="-0.06863">
        <ele>-12.460646666667</ele>
        <time>2017-10-15T14:04:22Z</time>
      </trkpt>
      <trkpt lat="44.63478" lon="-0.06855">
        <ele>-15.860866666667</ele>
        <time>2017-10-15T14:04:29Z</time>
      </trkpt>
      <trkpt lat="44.63473" lon="-0.06846">
        <ele>-17.661086666667</ele>
        <time>2017-10-15T14:04:35Z</time>
      </trkpt>
      <trkpt lat="44.63468" lon="-0.06836">
        <ele>-17.061286666667</ele>
        <time>2017-10-15T14:04:41Z</time>
      </trkpt>
      <trkpt lat="44.63464" lon="-0.06826">
        <ele>-14.661433333333</ele>
        <time>2017-10-15T14:04:48Z</time>
      </trkpt>
      <trkpt lat="44.6346" lon="-0.06817">
        <ele>-15.26162</ele>
        <time>2017-10-15T14:04:54Z</time>
      </trkpt>
      <trkpt lat="44.63452" lon="-0.0681">
        <ele>-13.361913333333</ele>
        <time>2017-10-15T14:05:01Z</time>
      </trkpt>
      <trkpt lat="44.63446" lon="-0.06801">
        <ele>-11.962146666667</ele>
        <time>2017-10-15T14:05:07Z</time>
      </trkpt>
      <trkpt lat="44.63442" lon="-0.06792">
        <ele>-11.162306666667</ele>
        <time>2017-10-15T14:05:13Z</time>
      </trkpt>
      <trkpt lat="44.63439" lon="-0.06781">
        <ele>-6.7624466666667</ele>
        <time>2017-10-15T14:05:20Z</time>
      </trkpt>
      <trkpt lat="44.63435" lon="-0.06771">
        <ele>-4.9626133333333</ele>
        <time>2017-10-15T14:05:27Z</time>
      </trkpt>
      <trkpt lat="44.63429" lon="-0.06763">
        <ele>-4.1628266666667</ele>
        <time>2017-10-15T14:05:33Z</time>
      </trkpt>
      <trkpt lat="44.63425" lon="-0.06754">
        <ele>-6.5629866666667</ele>
        <time>2017-10-15T14:05:39Z</time>
      </trkpt>
      <trkpt lat="44.63419" lon="-0.06746">
        <ele>-17.46324</ele>
        <time>2017-10-15T14:05:43Z</time>
      </trkpt>
      <trkpt lat="44.63414" lon="-0.06736">
        <ele>-21.463426666667</ele>
        <time>2017-10-15T14:05:50Z</time>
      </trkpt>
      <trkpt lat="44.63409" lon="-0.06728">
        <ele>-17.66366</ele>
        <time>2017-10-15T14:05:59Z</time>
      </trkpt>
      <trkpt lat="44.63402" lon="-0.06721">
        <ele>-15.363933333333</ele>
        <time>2017-10-15T14:06:06Z</time>
      </trkpt>
      <trkpt lat="44.63397" lon="-0.0671">
        <ele>-14.564113333333</ele>
        <time>2017-10-15T14:06:15Z</time>
      </trkpt>
      <trkpt lat="44.63392" lon="-0.06711">
        <ele>-16.364313333333</ele>
        <time>2017-10-15T14:07:40Z</time>
      </trkpt>
      <trkpt lat="44.63387" lon="-0.06701">
        <ele>-12.764513333333</ele>
        <time>2017-10-15T14:07:50Z</time>
      </trkpt>
      <trkpt lat="44.63381" lon="-0.06691">
        <ele>-6.8647466666667</ele>
        <time>2017-10-15T14:08:01Z</time>
      </trkpt>
      <trkpt lat="44.63378" lon="-0.06681">
        <ele>-11.164873333333</ele>
        <time>2017-10-15T14:08:09Z</time>
      </trkpt>
      <trkpt lat="44.63372" lon="-0.06676">
        <ele>-14.16512</ele>
        <time>2017-10-15T14:09:01Z</time>
      </trkpt>
      <trkpt lat="44.63367" lon="-0.06678">
        <ele>-15.565333333333</ele>
        <time>2017-10-15T14:09:27Z</time>
      </trkpt>
      <trkpt lat="44.63359" lon="-0.06673">
        <ele>-19.165633333333</ele>
        <time>2017-10-15T14:09:32Z</time>
      </trkpt>
      <trkpt lat="44.63353" lon="-0.06664">
        <ele>-18.565886666667</ele>
        <time>2017-10-15T14:09:38Z</time>
      </trkpt>
      <trkpt lat="44.63346" lon="-0.0666">
        <ele>-16.366173333333</ele>
        <time>2017-10-15T14:09:43Z</time>
      </trkpt>
      <trkpt lat="44.63337" lon="-0.06658">
        <ele>-14.76652</ele>
        <time>2017-10-15T14:09:50Z</time>
      </trkpt>
      <trkpt lat="44.63329" lon="-0.06656">
        <ele>-20.66686</ele>
        <time>2017-10-15T14:10:00Z</time>
      </trkpt>
      <trkpt lat="44.6332" lon="-0.06652">
        <ele>-19.667193333333</ele>
        <time>2017-10-15T14:10:07Z</time>
      </trkpt>
      <trkpt lat="44.63312" lon="-0.06649">
        <ele>-18.067533333333</ele>
        <time>2017-10-15T14:10:14Z</time>
      </trkpt>
      <trkpt lat="44.63305" lon="-0.06644">
        <ele>-16.467813333333</ele>
        <time>2017-10-15T14:10:19Z</time>
      </trkpt>
      <trkpt lat="44.63297" lon="-0.06642">
        <ele>-15.568113333333</ele>
        <time>2017-10-15T14:10:24Z</time>
      </trkpt>
      <trkpt lat="44.6329" lon="-0.06637">
        <ele>-15.568386666667</ele>
        <time>2017-10-15T14:10:30Z</time>
      </trkpt>
      <trkpt lat="44.63283" lon="-0.06632">
        <ele>-13.76868</ele>
        <time>2017-10-15T14:10:37Z</time>
      </trkpt>
      <trkpt lat="44.63275" lon="-0.06628">
        <ele>-13.369</ele>
        <time>2017-10-15T14:10:43Z</time>
      </trkpt>
      <trkpt lat="44.63267" lon="-0.06625">
        <ele>-13.16932</ele>
        <time>2017-10-15T14:10:50Z</time>
      </trkpt>
      <trkpt lat="44.6326" lon="-0.06621">
        <ele>-13.86962</ele>
        <time>2017-10-15T14:10:56Z</time>
      </trkpt>
      <trkpt lat="44.63251" lon="-0.06617">
        <ele>-14.569946666667</ele>
        <time>2017-10-15T14:11:03Z</time>
      </trkpt>
      <trkpt lat="44.63244" lon="-0.06613">
        <ele>-14.370233333333</ele>
        <time>2017-10-15T14:11:08Z</time>
      </trkpt>
      <trkpt lat="44.63237" lon="-0.06607">
        <ele>-14.57054</ele>
        <time>2017-10-15T14:11:14Z</time>
      </trkpt>
      <trkpt lat="44.6323" lon="-0.06602">
        <ele>-15.67082</ele>
        <time>2017-10-15T14:11:20Z</time>
      </trkpt>
      <trkpt lat="44.63223" lon="-0.06596">
        <ele>-13.67108</ele>
        <time>2017-10-15T14:11:26Z</time>
      </trkpt>
      <trkpt lat="44.63215" lon="-0.06591">
        <ele>-14.371393333333</ele>
        <time>2017-10-15T14:11:33Z</time>
      </trkpt>
      <trkpt lat="44.63208" lon="-0.06585">
        <ele>-14.771673333333</ele>
        <time>2017-10-15T14:11:40Z</time>
      </trkpt>
      <trkpt lat="44.63202" lon="-0.06577">
        <ele>-15.971933333333</ele>
        <time>2017-10-15T14:11:46Z</time>
      </trkpt>
      <trkpt lat="44.63194" lon="-0.06572">
        <ele>-15.97224</ele>
        <time>2017-10-15T14:11:53Z</time>
      </trkpt>
      <trkpt lat="44.63188" lon="-0.06566">
        <ele>-14.1725</ele>
        <time>2017-10-15T14:11:59Z</time>
      </trkpt>
      <trkpt lat="44.6318" lon="-0.06561">
        <ele>-15.87282</ele>
        <time>2017-10-15T14:12:07Z</time>
      </trkpt>
      <trkpt lat="44.63172" lon="-0.06555">
        <ele>-15.47314</ele>
        <time>2017-10-15T14:12:14Z</time>
      </trkpt>
      <trkpt lat="44.63164" lon="-0.06549">
        <ele>-19.173433333333</ele>
        <time>2017-10-15T14:12:20Z</time>
      </trkpt>
      <trkpt lat="44.63156" lon="-0.06546">
        <ele>-31.77376</ele>
        <time>2017-10-15T14:12:31Z</time>
      </trkpt>
      <trkpt lat="44.63152" lon="-0.06535">
        <ele>-27.97394</ele>
        <time>2017-10-15T14:12:42Z</time>
      </trkpt>
      <trkpt lat="44.63148" lon="-0.06525">
        <ele>-26.974086666667</ele>
        <time>2017-10-15T14:12:52Z</time>
      </trkpt>
      <trkpt lat="44.63143" lon="-0.06516">
        <ele>-25.5743</ele>
        <time>2017-10-15T14:13:00Z</time>
      </trkpt>
      <trkpt lat="44.63138" lon="-0.06507">
        <ele>-24.17448</ele>
        <time>2017-10-15T14:13:07Z</time>
      </trkpt>
      <trkpt lat="44.63133" lon="-0.06498">
        <ele>-23.17468</ele>
        <time>2017-10-15T14:13:14Z</time>
      </trkpt>
      <trkpt lat="44.63128" lon="-0.0649">
        <ele>-22.674886666667</ele>
        <time>2017-10-15T14:13:20Z</time>
      </trkpt>
      <trkpt lat="44.63122" lon="-0.0648">
        <ele>-24.675113333333</ele>
        <time>2017-10-15T14:13:26Z</time>
      </trkpt>
      <trkpt lat="44.63116" lon="-0.06473">
        <ele>-24.575346666667</ele>
        <time>2017-10-15T14:13:32Z</time>
      </trkpt>
      <trkpt lat="44.6311" lon="-0.06466">
        <ele>-22.47562</ele>
        <time>2017-10-15T14:13:40Z</time>
      </trkpt>
      <trkpt lat="44.63102" lon="-0.0646">
        <ele>-25.97594</ele>
        <time>2017-10-15T14:13:44Z</time>
      </trkpt>
      <trkpt lat="44.63094" lon="-0.06459">
        <ele>-24.176253333333</ele>
        <time>2017-10-15T14:13:50Z</time>
      </trkpt>
      <trkpt lat="44.63086" lon="-0.06461">
        <ele>-23.27656</ele>
        <time>2017-10-15T14:13:57Z</time>
      </trkpt>
      <trkpt lat="44.63078" lon="-0.06463">
        <ele>-22.876886666667</ele>
        <time>2017-10-15T14:14:05Z</time>
      </trkpt>
      <trkpt lat="44.6307" lon="-0.06465">
        <ele>-20.577206666667</ele>
        <time>2017-10-15T14:14:12Z</time>
      </trkpt>
      <trkpt lat="44.63062" lon="-0.06465">
        <ele>-22.17752</ele>
        <time>2017-10-15T14:14:17Z</time>
      </trkpt>
      <trkpt lat="44.63054" lon="-0.06466">
        <ele>-20.377846666667</ele>
        <time>2017-10-15T14:14:24Z</time>
      </trkpt>
      <trkpt lat="44.63046" lon="-0.06467">
        <ele>-19.87816</ele>
        <time>2017-10-15T14:14:30Z</time>
      </trkpt>
      <trkpt lat="44.63038" lon="-0.06467">
        <ele>-21.878493333333</ele>
        <time>2017-10-15T14:14:41Z</time>
      </trkpt>
      <trkpt lat="44.63029" lon="-0.06467">
        <ele>-22.078846666667</ele>
        <time>2017-10-15T14:14:50Z</time>
      </trkpt>
      <trkpt lat="44.63021" lon="-0.06466">
        <ele>-23.279173333333</ele>
        <time>2017-10-15T14:14:57Z</time>
      </trkpt>
      <trkpt lat="44.63014" lon="-0.06473">
        <ele>-23.979446666667</ele>
        <time>2017-10-15T14:15:03Z</time>
      </trkpt>
      <trkpt lat="44.63008" lon="-0.06484">
        <ele>-27.9797</ele>
        <time>2017-10-15T14:15:08Z</time>
      </trkpt>
      <trkpt lat="44.63003" lon="-0.06493">
        <ele>-29.07988</ele>
        <time>2017-10-15T14:15:13Z</time>
      </trkpt>
      <trkpt lat="44.63002" lon="-0.06504">
        <ele>-29.979933333333</ele>
        <time>2017-10-15T14:15:19Z</time>
      </trkpt>
      <trkpt lat="44.62999" lon="-0.06516">
        <ele>-29.680033333333</ele>
        <time>2017-10-15T14:15:26Z</time>
      </trkpt>
      <trkpt lat="44.62998" lon="-0.06527">
        <ele>-28.380093333333</ele>
        <time>2017-10-15T14:15:33Z</time>
      </trkpt>
      <trkpt lat="44.62993" lon="-0.06535">
        <ele>-29.380286666667</ele>
        <time>2017-10-15T14:15:39Z</time>
      </trkpt>
      <trkpt lat="44.62988" lon="-0.06545">
        <ele>-30.08048</ele>
        <time>2017-10-15T14:15:46Z</time>
      </trkpt>
      <trkpt lat="44.6298" lon="-0.06551">
        <ele>-36.280793333333</ele>
        <time>2017-10-15T14:15:52Z</time>
      </trkpt>
      <trkpt lat="44.62975" lon="-0.0656">
        <ele>-35.980993333333</ele>
        <time>2017-10-15T14:15:58Z</time>
      </trkpt>
      <trkpt lat="44.6297" lon="-0.06569">
        <ele>-33.481186666667</ele>
        <time>2017-10-15T14:16:05Z</time>
      </trkpt>
      <trkpt lat="44.62969" lon="-0.06582">
        <ele>-29.181226666667</ele>
        <time>2017-10-15T14:16:12Z</time>
      </trkpt>
      <trkpt lat="44.62965" lon="-0.06593">
        <ele>-28.481386666667</ele>
        <time>2017-10-15T14:16:18Z</time>
      </trkpt>
      <trkpt lat="44.62959" lon="-0.06601">
        <ele>-27.38164</ele>
        <time>2017-10-15T14:16:25Z</time>
      </trkpt>
      <trkpt lat="44.62955" lon="-0.06611">
        <ele>-28.3818</ele>
        <time>2017-10-15T14:16:32Z</time>
      </trkpt>
      <trkpt lat="44.62952" lon="-0.06621">
        <ele>-29.281926666667</ele>
        <time>2017-10-15T14:16:38Z</time>
      </trkpt>
      <trkpt lat="44.6295" lon="-0.06633">
        <ele>-26.781986666667</ele>
        <time>2017-10-15T14:16:45Z</time>
      </trkpt>
      <trkpt lat="44.62949" lon="-0.06645">
        <ele>-26.78206</ele>
        <time>2017-10-15T14:16:54Z</time>
      </trkpt>
      <trkpt lat="44.62945" lon="-0.06656">
        <ele>-33.782213333333</ele>
        <time>2017-10-15T14:17:03Z</time>
      </trkpt>
      <trkpt lat="44.62941" lon="-0.06666">
        <ele>-37.28238</ele>
        <time>2017-10-15T14:17:10Z</time>
      </trkpt>
      <trkpt lat="44.62941" lon="-0.06679">
        <ele>-37.082353333333</ele>
        <time>2017-10-15T14:17:17Z</time>
      </trkpt>
      <trkpt lat="44.62939" lon="-0.0669">
        <ele>-32.082426666667</ele>
        <time>2017-10-15T14:17:24Z</time>
      </trkpt>
      <trkpt lat="44.62937" lon="-0.06701">
        <ele>-26.78252</ele>
        <time>2017-10-15T14:17:30Z</time>
      </trkpt>
      <trkpt lat="44.62936" lon="-0.06713">
        <ele>-22.582553333333</ele>
        <time>2017-10-15T14:17:37Z</time>
      </trkpt>
      <trkpt lat="44.62934" lon="-0.06723">
        <ele>-11.082653333333</ele>
        <time>2017-10-15T14:17:45Z</time>
      </trkpt>
      <trkpt lat="44.62925" lon="-0.06723">
        <ele>-12.782986666667</ele>
        <time>2017-10-15T14:17:52Z</time>
      </trkpt>
      <trkpt lat="44.62917" lon="-0.06722">
        <ele>-15.28334</ele>
        <time>2017-10-15T14:17:59Z</time>
      </trkpt>
      <trkpt lat="44.62908" lon="-0.06721">
        <ele>-14.48368</ele>
        <time>2017-10-15T14:18:07Z</time>
      </trkpt>
      <trkpt lat="44.629" lon="-0.06718">
        <ele>-15.68402</ele>
        <time>2017-10-15T14:18:14Z</time>
      </trkpt>
      <trkpt lat="44.62892" lon="-0.06712">
        <ele>-19.484306666667</ele>
        <time>2017-10-15T14:18:23Z</time>
      </trkpt>
      <trkpt lat="44.62884" lon="-0.0671">
        <ele>-22.78464</ele>
        <time>2017-10-15T14:18:32Z</time>
      </trkpt>
      <trkpt lat="44.62876" lon="-0.06706">
        <ele>-22.484946666667</ele>
        <time>2017-10-15T14:18:39Z</time>
      </trkpt>
      <trkpt lat="44.62868" lon="-0.06704">
        <ele>-19.685273333333</ele>
        <time>2017-10-15T14:18:49Z</time>
      </trkpt>
      <trkpt lat="44.62862" lon="-0.06701">
        <ele>-15.48554</ele>
        <time>2017-10-15T14:18:55Z</time>
      </trkpt>
      <trkpt lat="44.62853" lon="-0.06699">
        <ele>-21.285866666667</ele>
        <time>2017-10-15T14:19:02Z</time>
      </trkpt>
      <trkpt lat="44.62847" lon="-0.06698">
        <ele>-23.186113333333</ele>
        <time>2017-10-15T14:19:07Z</time>
      </trkpt>
      <trkpt lat="44.62839" lon="-0.06694">
        <ele>-26.686433333333</ele>
        <time>2017-10-15T14:19:21Z</time>
      </trkpt>
      <trkpt lat="44.62836" lon="-0.06695">
        <ele>-26.786553333333</ele>
        <time>2017-10-15T14:19:37Z</time>
      </trkpt>
    </trkseg>
  </trk>
</gpx>